<?xml version="1.0" encoding="UTF-8" standalone="no" ?>
<gpx xmlns="http://www.topografix.com/GPX/1/1" xmlns:xsi="http://www.w3.org/2001/XMLSchema-instance" xsi:schemaLocation="http://www.topografix.com/GPX/1/1 http://www.topografix.com/GPX/1/1/gpx.xsd" version="1.1" creator="VisuGPX - https://www.visugpx.com">
  <metadata>
    <name>Sp3 Spéciale &quot;Le Cos&quot; </name>
    <desc><![CDATA[

En départ de Seix. Niveau piste : Noire (Quelques passages a fort dénivelé).]]></desc>
  </metadata>
  <trk>
    <name><![CDATA[Sp3 Spéciale "Le Cos" ]]></name>
    <desc><![CDATA[En départ de Seix. Niveau piste : Noire (Quelques passages a fort dénivelé).]]></desc>
    <extensions>
      <line xmlns="http://www.topografix.com/GPX/gpx_style/0/2">
        <color>6b4900</color>
        <width>4</width>
          <extensions>
            <sens>1</sens>
          </extensions>
      </line>
    </extensions>
    <trkseg>
      <trkpt lat="42.86683" lon="1.20116">
        <ele>580.8</ele>
        <time>2022-05-21T06:30:34.000Z</time>
      </trkpt>
      <trkpt lat="42.86673" lon="1.20109">
        <ele>581</ele>
        <time>2022-05-21T06:30:38.000Z</time>
      </trkpt>
      <trkpt lat="42.86664" lon="1.20102">
        <ele>581.2</ele>
        <time>2022-05-21T06:30:42.000Z</time>
      </trkpt>
      <trkpt lat="42.86657" lon="1.20095">
        <ele>581.7</ele>
        <time>2022-05-21T06:30:46.000Z</time>
      </trkpt>
      <trkpt lat="42.86647" lon="1.20092">
        <ele>582.3</ele>
        <time>2022-05-21T06:30:53.000Z</time>
      </trkpt>
      <trkpt lat="42.86634" lon="1.2009">
        <ele>582.7</ele>
        <time>2022-05-21T06:30:57.000Z</time>
      </trkpt>
      <trkpt lat="42.86623" lon="1.2009">
        <ele>581.9</ele>
        <time>2022-05-21T06:30:59.000Z</time>
      </trkpt>
      <trkpt lat="42.86612" lon="1.2009">
        <ele>581.6</ele>
        <time>2022-05-21T06:31:01.000Z</time>
      </trkpt>
      <trkpt lat="42.86603" lon="1.20093">
        <ele>581.3</ele>
        <time>2022-05-21T06:31:03.000Z</time>
      </trkpt>
      <trkpt lat="42.86595" lon="1.20099">
        <ele>580.3</ele>
        <time>2022-05-21T06:31:05.000Z</time>
      </trkpt>
      <trkpt lat="42.86583" lon="1.20107">
        <ele>580.2</ele>
        <time>2022-05-21T06:31:08.000Z</time>
      </trkpt>
      <trkpt lat="42.86575" lon="1.20114">
        <ele>579.4</ele>
        <time>2022-05-21T06:31:10.000Z</time>
      </trkpt>
      <trkpt lat="42.86566" lon="1.20122">
        <ele>578.9</ele>
        <time>2022-05-21T06:31:12.000Z</time>
      </trkpt>
      <trkpt lat="42.86558" lon="1.20127">
        <ele>578.5</ele>
        <time>2022-05-21T06:31:14.000Z</time>
      </trkpt>
      <trkpt lat="42.86544" lon="1.20129">
        <ele>578</ele>
        <time>2022-05-21T06:31:16.000Z</time>
      </trkpt>
      <trkpt lat="42.8653" lon="1.2013">
        <ele>577</ele>
        <time>2022-05-21T06:31:18.000Z</time>
      </trkpt>
      <trkpt lat="42.86518" lon="1.2013">
        <ele>575.8</ele>
        <time>2022-05-21T06:31:21.000Z</time>
      </trkpt>
      <trkpt lat="42.86512" lon="1.20128">
        <ele>550.7</ele>
        <time>2022-05-21T06:31:28.000Z</time>
      </trkpt>
      <trkpt lat="42.86503" lon="1.20129">
        <ele>568.9</ele>
        <time>2022-05-21T06:31:35.000Z</time>
      </trkpt>
      <trkpt lat="42.86501" lon="1.20142">
        <ele>565.6</ele>
        <time>2022-05-21T06:31:41.000Z</time>
      </trkpt>
      <trkpt lat="42.86494" lon="1.2013">
        <ele>562.5</ele>
        <time>2022-05-21T06:31:47.000Z</time>
      </trkpt>
      <trkpt lat="42.86492" lon="1.20091">
        <ele>556.9</ele>
        <time>2022-05-21T06:32:01.000Z</time>
      </trkpt>
      <trkpt lat="42.865" lon="1.20083">
        <ele>556.1</ele>
        <time>2022-05-21T06:32:05.000Z</time>
      </trkpt>
      <trkpt lat="42.86509" lon="1.20078">
        <ele>555.3</ele>
        <time>2022-05-21T06:32:09.000Z</time>
      </trkpt>
      <trkpt lat="42.86519" lon="1.2007">
        <ele>554.6</ele>
        <time>2022-05-21T06:32:14.000Z</time>
      </trkpt>
      <trkpt lat="42.86529" lon="1.20064">
        <ele>553.8</ele>
        <time>2022-05-21T06:32:18.000Z</time>
      </trkpt>
      <trkpt lat="42.8654" lon="1.20059">
        <ele>553.5</ele>
        <time>2022-05-21T06:32:21.000Z</time>
      </trkpt>
      <trkpt lat="42.86548" lon="1.20053">
        <ele>553.2</ele>
        <time>2022-05-21T06:32:23.000Z</time>
      </trkpt>
      <trkpt lat="42.86555" lon="1.20043">
        <ele>553</ele>
        <time>2022-05-21T06:32:25.000Z</time>
      </trkpt>
      <trkpt lat="42.86559" lon="1.20029">
        <ele>553</ele>
        <time>2022-05-21T06:32:27.000Z</time>
      </trkpt>
      <trkpt lat="42.86564" lon="1.20013">
        <ele>552.2</ele>
        <time>2022-05-21T06:32:29.000Z</time>
      </trkpt>
      <trkpt lat="42.86573" lon="1.19997">
        <ele>551.8</ele>
        <time>2022-05-21T06:32:31.000Z</time>
      </trkpt>
      <trkpt lat="42.8658" lon="1.19985">
        <ele>551.4</ele>
        <time>2022-05-21T06:32:33.000Z</time>
      </trkpt>
      <trkpt lat="42.86584" lon="1.19969">
        <ele>551</ele>
        <time>2022-05-21T06:32:36.000Z</time>
      </trkpt>
      <trkpt lat="42.86578" lon="1.19955">
        <ele>565.5</ele>
        <time>2022-05-21T06:32:39.000Z</time>
      </trkpt>
      <trkpt lat="42.86567" lon="1.19951">
        <ele>560.4</ele>
        <time>2022-05-21T06:32:42.000Z</time>
      </trkpt>
      <trkpt lat="42.86555" lon="1.19949">
        <ele>555.1</ele>
        <time>2022-05-21T06:32:45.000Z</time>
      </trkpt>
      <trkpt lat="42.86543" lon="1.19948">
        <ele>550.1</ele>
        <time>2022-05-21T06:32:48.000Z</time>
      </trkpt>
      <trkpt lat="42.86534" lon="1.19947">
        <ele>547.3</ele>
        <time>2022-05-21T06:32:52.000Z</time>
      </trkpt>
      <trkpt lat="42.86534" lon="1.19933">
        <ele>546.8</ele>
        <time>2022-05-21T06:32:56.000Z</time>
      </trkpt>
      <trkpt lat="42.86535" lon="1.19917">
        <ele>546</ele>
        <time>2022-05-21T06:33:00.000Z</time>
      </trkpt>
      <trkpt lat="42.86534" lon="1.19904">
        <ele>545.3</ele>
        <time>2022-05-21T06:33:04.000Z</time>
      </trkpt>
      <trkpt lat="42.86526" lon="1.19898">
        <ele>544.7</ele>
        <time>2022-05-21T06:33:10.000Z</time>
      </trkpt>
      <trkpt lat="42.86514" lon="1.19895">
        <ele>543.8</ele>
        <time>2022-05-21T06:33:14.000Z</time>
      </trkpt>
      <trkpt lat="42.86503" lon="1.19894">
        <ele>543.4</ele>
        <time>2022-05-21T06:33:18.000Z</time>
      </trkpt>
      <trkpt lat="42.86491" lon="1.19895">
        <ele>542.8</ele>
        <time>2022-05-21T06:33:21.000Z</time>
      </trkpt>
      <trkpt lat="42.86479" lon="1.19895">
        <ele>542.2</ele>
        <time>2022-05-21T06:33:24.000Z</time>
      </trkpt>
      <trkpt lat="42.86469" lon="1.19894">
        <ele>541.4</ele>
        <time>2022-05-21T06:33:27.000Z</time>
      </trkpt>
      <trkpt lat="42.86459" lon="1.19892">
        <ele>540.8</ele>
        <time>2022-05-21T06:33:30.000Z</time>
      </trkpt>
      <trkpt lat="42.86447" lon="1.1989">
        <ele>539.7</ele>
        <time>2022-05-21T06:33:34.000Z</time>
      </trkpt>
      <trkpt lat="42.86437" lon="1.19889">
        <ele>539.2</ele>
        <time>2022-05-21T06:33:38.000Z</time>
      </trkpt>
      <trkpt lat="42.86426" lon="1.19889">
        <ele>538.4</ele>
        <time>2022-05-21T06:33:42.000Z</time>
      </trkpt>
      <trkpt lat="42.86417" lon="1.19891">
        <ele>537.6</ele>
        <time>2022-05-21T06:33:45.000Z</time>
      </trkpt>
      <trkpt lat="42.86409" lon="1.19895">
        <ele>537.3</ele>
        <time>2022-05-21T06:33:48.000Z</time>
      </trkpt>
      <trkpt lat="42.86397" lon="1.199">
        <ele>537.4</ele>
        <time>2022-05-21T06:33:52.000Z</time>
      </trkpt>
      <trkpt lat="42.86387" lon="1.19906">
        <ele>536.7</ele>
        <time>2022-05-21T06:33:56.000Z</time>
      </trkpt>
      <trkpt lat="42.86376" lon="1.19911">
        <ele>536</ele>
        <time>2022-05-21T06:34:00.000Z</time>
      </trkpt>
      <trkpt lat="42.86366" lon="1.1991">
        <ele>535.8</ele>
        <time>2022-05-21T06:34:03.000Z</time>
      </trkpt>
      <trkpt lat="42.86357" lon="1.19906">
        <ele>535.8</ele>
        <time>2022-05-21T06:34:06.000Z</time>
      </trkpt>
      <trkpt lat="42.86348" lon="1.19906">
        <ele>535.8</ele>
        <time>2022-05-21T06:34:09.000Z</time>
      </trkpt>
      <trkpt lat="42.86338" lon="1.19906">
        <ele>535.3</ele>
        <time>2022-05-21T06:34:12.000Z</time>
      </trkpt>
      <trkpt lat="42.86327" lon="1.19904">
        <ele>535</ele>
        <time>2022-05-21T06:34:15.000Z</time>
      </trkpt>
      <trkpt lat="42.86316" lon="1.19901">
        <ele>535.3</ele>
        <time>2022-05-21T06:34:18.000Z</time>
      </trkpt>
      <trkpt lat="42.86306" lon="1.19897">
        <ele>534.8</ele>
        <time>2022-05-21T06:34:21.000Z</time>
      </trkpt>
      <trkpt lat="42.86296" lon="1.19894">
        <ele>535</ele>
        <time>2022-05-21T06:34:24.000Z</time>
      </trkpt>
      <trkpt lat="42.86286" lon="1.19891">
        <ele>535.2</ele>
        <time>2022-05-21T06:34:27.000Z</time>
      </trkpt>
      <trkpt lat="42.86276" lon="1.19889">
        <ele>534.7</ele>
        <time>2022-05-21T06:34:30.000Z</time>
      </trkpt>
      <trkpt lat="42.86267" lon="1.19887">
        <ele>534.8</ele>
        <time>2022-05-21T06:34:33.000Z</time>
      </trkpt>
      <trkpt lat="42.86257" lon="1.19883">
        <ele>534.1</ele>
        <time>2022-05-21T06:34:36.000Z</time>
      </trkpt>
      <trkpt lat="42.86246" lon="1.1988">
        <ele>534</ele>
        <time>2022-05-21T06:34:39.000Z</time>
      </trkpt>
      <trkpt lat="42.86237" lon="1.19877">
        <ele>534.1</ele>
        <time>2022-05-21T06:34:42.000Z</time>
      </trkpt>
      <trkpt lat="42.86226" lon="1.19873">
        <ele>533.7</ele>
        <time>2022-05-21T06:34:46.000Z</time>
      </trkpt>
      <trkpt lat="42.86223" lon="1.19871">
        <ele>533</ele>
        <time>2022-05-21T06:34:52.000Z</time>
      </trkpt>
      <trkpt lat="42.86222" lon="1.19871">
        <ele>531.6</ele>
        <time>2022-05-21T06:35:12.000Z</time>
      </trkpt>
      <trkpt lat="42.86212" lon="1.19869">
        <ele>530.4</ele>
        <time>2022-05-21T06:35:16.000Z</time>
      </trkpt>
      <trkpt lat="42.862" lon="1.19866">
        <ele>530.2</ele>
        <time>2022-05-21T06:35:19.000Z</time>
      </trkpt>
      <trkpt lat="42.86188" lon="1.19862">
        <ele>530</ele>
        <time>2022-05-21T06:35:22.000Z</time>
      </trkpt>
      <trkpt lat="42.86176" lon="1.19858">
        <ele>529.8</ele>
        <time>2022-05-21T06:35:25.000Z</time>
      </trkpt>
      <trkpt lat="42.86166" lon="1.19855">
        <ele>530</ele>
        <time>2022-05-21T06:35:28.000Z</time>
      </trkpt>
      <trkpt lat="42.86155" lon="1.19851">
        <ele>530.1</ele>
        <time>2022-05-21T06:35:31.000Z</time>
      </trkpt>
      <trkpt lat="42.86146" lon="1.19849">
        <ele>530.2</ele>
        <time>2022-05-21T06:35:34.000Z</time>
      </trkpt>
      <trkpt lat="42.86134" lon="1.19847">
        <ele>530.2</ele>
        <time>2022-05-21T06:35:38.000Z</time>
      </trkpt>
      <trkpt lat="42.86124" lon="1.19845">
        <ele>529.7</ele>
        <time>2022-05-21T06:35:41.000Z</time>
      </trkpt>
      <trkpt lat="42.86115" lon="1.19842">
        <ele>529.3</ele>
        <time>2022-05-21T06:35:44.000Z</time>
      </trkpt>
      <trkpt lat="42.86103" lon="1.19838">
        <ele>529.7</ele>
        <time>2022-05-21T06:35:48.000Z</time>
      </trkpt>
      <trkpt lat="42.86095" lon="1.19833">
        <ele>529.8</ele>
        <time>2022-05-21T06:35:51.000Z</time>
      </trkpt>
      <trkpt lat="42.86086" lon="1.19828">
        <ele>530</ele>
        <time>2022-05-21T06:35:54.000Z</time>
      </trkpt>
      <trkpt lat="42.86078" lon="1.19822">
        <ele>529.8</ele>
        <time>2022-05-21T06:35:57.000Z</time>
      </trkpt>
      <trkpt lat="42.86069" lon="1.19817">
        <ele>530</ele>
        <time>2022-05-21T06:36:00.000Z</time>
      </trkpt>
      <trkpt lat="42.86059" lon="1.19812">
        <ele>530.7</ele>
        <time>2022-05-21T06:36:03.000Z</time>
      </trkpt>
      <trkpt lat="42.86049" lon="1.19805">
        <ele>531</ele>
        <time>2022-05-21T06:36:06.000Z</time>
      </trkpt>
      <trkpt lat="42.86039" lon="1.19798">
        <ele>531.6</ele>
        <time>2022-05-21T06:36:09.000Z</time>
      </trkpt>
      <trkpt lat="42.86029" lon="1.1979">
        <ele>531.9</ele>
        <time>2022-05-21T06:36:12.000Z</time>
      </trkpt>
      <trkpt lat="42.86018" lon="1.19782">
        <ele>532.2</ele>
        <time>2022-05-21T06:36:15.000Z</time>
      </trkpt>
      <trkpt lat="42.86008" lon="1.19773">
        <ele>532.9</ele>
        <time>2022-05-21T06:36:18.000Z</time>
      </trkpt>
      <trkpt lat="42.85999" lon="1.19764">
        <ele>533.1</ele>
        <time>2022-05-21T06:36:21.000Z</time>
      </trkpt>
      <trkpt lat="42.85991" lon="1.19758">
        <ele>533.7</ele>
        <time>2022-05-21T06:36:24.000Z</time>
      </trkpt>
      <trkpt lat="42.8598" lon="1.19752">
        <ele>534</ele>
        <time>2022-05-21T06:36:28.000Z</time>
      </trkpt>
      <trkpt lat="42.85968" lon="1.19749">
        <ele>534.4</ele>
        <time>2022-05-21T06:36:32.000Z</time>
      </trkpt>
      <trkpt lat="42.85958" lon="1.19747">
        <ele>534.8</ele>
        <time>2022-05-21T06:36:35.000Z</time>
      </trkpt>
      <trkpt lat="42.85948" lon="1.19745">
        <ele>534.7</ele>
        <time>2022-05-21T06:36:38.000Z</time>
      </trkpt>
      <trkpt lat="42.85938" lon="1.19742">
        <ele>534.6</ele>
        <time>2022-05-21T06:36:41.000Z</time>
      </trkpt>
      <trkpt lat="42.85926" lon="1.19737">
        <ele>534.9</ele>
        <time>2022-05-21T06:36:44.000Z</time>
      </trkpt>
      <trkpt lat="42.85915" lon="1.19733">
        <ele>535.5</ele>
        <time>2022-05-21T06:36:47.000Z</time>
      </trkpt>
      <trkpt lat="42.85904" lon="1.1973">
        <ele>535.6</ele>
        <time>2022-05-21T06:36:50.000Z</time>
      </trkpt>
      <trkpt lat="42.85897" lon="1.19728">
        <ele>536.7</ele>
        <time>2022-05-21T06:36:56.000Z</time>
      </trkpt>
      <trkpt lat="42.85887" lon="1.1973">
        <ele>538</ele>
        <time>2022-05-21T06:37:10.000Z</time>
      </trkpt>
      <trkpt lat="42.85876" lon="1.19732">
        <ele>538</ele>
        <time>2022-05-21T06:37:15.000Z</time>
      </trkpt>
      <trkpt lat="42.85865" lon="1.1973">
        <ele>537.7</ele>
        <time>2022-05-21T06:37:18.000Z</time>
      </trkpt>
      <trkpt lat="42.85856" lon="1.19728">
        <ele>538.4</ele>
        <time>2022-05-21T06:37:21.000Z</time>
      </trkpt>
      <trkpt lat="42.85846" lon="1.19723">
        <ele>538.8</ele>
        <time>2022-05-21T06:37:24.000Z</time>
      </trkpt>
      <trkpt lat="42.85836" lon="1.1972">
        <ele>539</ele>
        <time>2022-05-21T06:37:27.000Z</time>
      </trkpt>
      <trkpt lat="42.85827" lon="1.19717">
        <ele>539.4</ele>
        <time>2022-05-21T06:37:30.000Z</time>
      </trkpt>
      <trkpt lat="42.85816" lon="1.19715">
        <ele>539.6</ele>
        <time>2022-05-21T06:37:33.000Z</time>
      </trkpt>
      <trkpt lat="42.85805" lon="1.19712">
        <ele>540</ele>
        <time>2022-05-21T06:37:36.000Z</time>
      </trkpt>
      <trkpt lat="42.85793" lon="1.19711">
        <ele>540.6</ele>
        <time>2022-05-21T06:37:39.000Z</time>
      </trkpt>
      <trkpt lat="42.85782" lon="1.19707">
        <ele>540.6</ele>
        <time>2022-05-21T06:37:42.000Z</time>
      </trkpt>
      <trkpt lat="42.85772" lon="1.19702">
        <ele>540.8</ele>
        <time>2022-05-21T06:37:45.000Z</time>
      </trkpt>
      <trkpt lat="42.85759" lon="1.19698">
        <ele>541</ele>
        <time>2022-05-21T06:37:49.000Z</time>
      </trkpt>
      <trkpt lat="42.85749" lon="1.19692">
        <ele>541.1</ele>
        <time>2022-05-21T06:37:52.000Z</time>
      </trkpt>
      <trkpt lat="42.85738" lon="1.19686">
        <ele>541.5</ele>
        <time>2022-05-21T06:37:55.000Z</time>
      </trkpt>
      <trkpt lat="42.85728" lon="1.19681">
        <ele>541.5</ele>
        <time>2022-05-21T06:37:58.000Z</time>
      </trkpt>
      <trkpt lat="42.85717" lon="1.19676">
        <ele>541.8</ele>
        <time>2022-05-21T06:38:02.000Z</time>
      </trkpt>
      <trkpt lat="42.85708" lon="1.19674">
        <ele>542.3</ele>
        <time>2022-05-21T06:38:07.000Z</time>
      </trkpt>
      <trkpt lat="42.85698" lon="1.19671">
        <ele>543.3</ele>
        <time>2022-05-21T06:38:13.000Z</time>
      </trkpt>
      <trkpt lat="42.85689" lon="1.19669">
        <ele>542.8</ele>
        <time>2022-05-21T06:38:18.000Z</time>
      </trkpt>
      <trkpt lat="42.85677" lon="1.19667">
        <ele>542.4</ele>
        <time>2022-05-21T06:38:23.000Z</time>
      </trkpt>
      <trkpt lat="42.85666" lon="1.19666">
        <ele>543.3</ele>
        <time>2022-05-21T06:38:27.000Z</time>
      </trkpt>
      <trkpt lat="42.85657" lon="1.19663">
        <ele>543.2</ele>
        <time>2022-05-21T06:38:30.000Z</time>
      </trkpt>
      <trkpt lat="42.85648" lon="1.19664">
        <ele>544</ele>
        <time>2022-05-21T06:38:33.000Z</time>
      </trkpt>
      <trkpt lat="42.85636" lon="1.19662">
        <ele>543.7</ele>
        <time>2022-05-21T06:38:37.000Z</time>
      </trkpt>
      <trkpt lat="42.85626" lon="1.19663">
        <ele>544.1</ele>
        <time>2022-05-21T06:38:42.000Z</time>
      </trkpt>
      <trkpt lat="42.85617" lon="1.19661">
        <ele>544.4</ele>
        <time>2022-05-21T06:38:46.000Z</time>
      </trkpt>
      <trkpt lat="42.85607" lon="1.19659">
        <ele>544.3</ele>
        <time>2022-05-21T06:38:50.000Z</time>
      </trkpt>
      <trkpt lat="42.85597" lon="1.19656">
        <ele>544.3</ele>
        <time>2022-05-21T06:38:54.000Z</time>
      </trkpt>
      <trkpt lat="42.85588" lon="1.19652">
        <ele>544.9</ele>
        <time>2022-05-21T06:38:58.000Z</time>
      </trkpt>
      <trkpt lat="42.85577" lon="1.19649">
        <ele>544.9</ele>
        <time>2022-05-21T06:39:01.000Z</time>
      </trkpt>
      <trkpt lat="42.85567" lon="1.19646">
        <ele>545.2</ele>
        <time>2022-05-21T06:39:05.000Z</time>
      </trkpt>
      <trkpt lat="42.85558" lon="1.19641">
        <ele>545.9</ele>
        <time>2022-05-21T06:39:09.000Z</time>
      </trkpt>
      <trkpt lat="42.85547" lon="1.19638">
        <ele>546.7</ele>
        <time>2022-05-21T06:39:14.000Z</time>
      </trkpt>
      <trkpt lat="42.85535" lon="1.19636">
        <ele>547.4</ele>
        <time>2022-05-21T06:39:18.000Z</time>
      </trkpt>
      <trkpt lat="42.85524" lon="1.19633">
        <ele>548</ele>
        <time>2022-05-21T06:39:22.000Z</time>
      </trkpt>
      <trkpt lat="42.85515" lon="1.19629">
        <ele>548.4</ele>
        <time>2022-05-21T06:39:25.000Z</time>
      </trkpt>
      <trkpt lat="42.85503" lon="1.19628">
        <ele>549</ele>
        <time>2022-05-21T06:39:29.000Z</time>
      </trkpt>
      <trkpt lat="42.85492" lon="1.19627">
        <ele>549.2</ele>
        <time>2022-05-21T06:39:33.000Z</time>
      </trkpt>
      <trkpt lat="42.85483" lon="1.19623">
        <ele>549.7</ele>
        <time>2022-05-21T06:39:37.000Z</time>
      </trkpt>
      <trkpt lat="42.85473" lon="1.19619">
        <ele>549.8</ele>
        <time>2022-05-21T06:39:41.000Z</time>
      </trkpt>
      <trkpt lat="42.85466" lon="1.1961">
        <ele>550.4</ele>
        <time>2022-05-21T06:39:45.000Z</time>
      </trkpt>
      <trkpt lat="42.85459" lon="1.196">
        <ele>550.8</ele>
        <time>2022-05-21T06:39:49.000Z</time>
      </trkpt>
      <trkpt lat="42.85451" lon="1.19592">
        <ele>550.8</ele>
        <time>2022-05-21T06:39:53.000Z</time>
      </trkpt>
      <trkpt lat="42.85443" lon="1.1958">
        <ele>551.2</ele>
        <time>2022-05-21T06:39:58.000Z</time>
      </trkpt>
      <trkpt lat="42.85435" lon="1.1957">
        <ele>551.6</ele>
        <time>2022-05-21T06:40:01.000Z</time>
      </trkpt>
      <trkpt lat="42.85428" lon="1.19559">
        <ele>551.7</ele>
        <time>2022-05-21T06:40:04.000Z</time>
      </trkpt>
      <trkpt lat="42.85424" lon="1.19547">
        <ele>552.1</ele>
        <time>2022-05-21T06:40:07.000Z</time>
      </trkpt>
      <trkpt lat="42.8542" lon="1.19535">
        <ele>552</ele>
        <time>2022-05-21T06:40:10.000Z</time>
      </trkpt>
      <trkpt lat="42.85416" lon="1.19523">
        <ele>552.2</ele>
        <time>2022-05-21T06:40:13.000Z</time>
      </trkpt>
      <trkpt lat="42.85411" lon="1.19511">
        <ele>552.6</ele>
        <time>2022-05-21T06:40:17.000Z</time>
      </trkpt>
      <trkpt lat="42.85407" lon="1.195">
        <ele>552.7</ele>
        <time>2022-05-21T06:40:20.000Z</time>
      </trkpt>
      <trkpt lat="42.85403" lon="1.19487">
        <ele>552.1</ele>
        <time>2022-05-21T06:40:23.000Z</time>
      </trkpt>
      <trkpt lat="42.85399" lon="1.19474">
        <ele>552.8</ele>
        <time>2022-05-21T06:40:26.000Z</time>
      </trkpt>
      <trkpt lat="42.85395" lon="1.19463">
        <ele>553.2</ele>
        <time>2022-05-21T06:40:29.000Z</time>
      </trkpt>
      <trkpt lat="42.85391" lon="1.19448">
        <ele>552.8</ele>
        <time>2022-05-21T06:40:33.000Z</time>
      </trkpt>
      <trkpt lat="42.85388" lon="1.19435">
        <ele>553.3</ele>
        <time>2022-05-21T06:40:37.000Z</time>
      </trkpt>
      <trkpt lat="42.85383" lon="1.19423">
        <ele>553</ele>
        <time>2022-05-21T06:40:40.000Z</time>
      </trkpt>
      <trkpt lat="42.85378" lon="1.19409">
        <ele>552.9</ele>
        <time>2022-05-21T06:40:43.000Z</time>
      </trkpt>
      <trkpt lat="42.85374" lon="1.19398">
        <ele>553</ele>
        <time>2022-05-21T06:40:46.000Z</time>
      </trkpt>
      <trkpt lat="42.85368" lon="1.19384">
        <ele>553</ele>
        <time>2022-05-21T06:40:50.000Z</time>
      </trkpt>
      <trkpt lat="42.85362" lon="1.19374">
        <ele>552.7</ele>
        <time>2022-05-21T06:40:53.000Z</time>
      </trkpt>
      <trkpt lat="42.85356" lon="1.19363">
        <ele>552.8</ele>
        <time>2022-05-21T06:40:56.000Z</time>
      </trkpt>
      <trkpt lat="42.85349" lon="1.19353">
        <ele>552.4</ele>
        <time>2022-05-21T06:40:59.000Z</time>
      </trkpt>
      <trkpt lat="42.85341" lon="1.19343">
        <ele>552</ele>
        <time>2022-05-21T06:41:02.000Z</time>
      </trkpt>
      <trkpt lat="42.85333" lon="1.19334">
        <ele>552</ele>
        <time>2022-05-21T06:41:05.000Z</time>
      </trkpt>
      <trkpt lat="42.85327" lon="1.19324">
        <ele>551.6</ele>
        <time>2022-05-21T06:41:08.000Z</time>
      </trkpt>
      <trkpt lat="42.8532" lon="1.19313">
        <ele>552.3</ele>
        <time>2022-05-21T06:41:11.000Z</time>
      </trkpt>
      <trkpt lat="42.85313" lon="1.19302">
        <ele>552.6</ele>
        <time>2022-05-21T06:41:15.000Z</time>
      </trkpt>
      <trkpt lat="42.85305" lon="1.19292">
        <ele>552.6</ele>
        <time>2022-05-21T06:41:19.000Z</time>
      </trkpt>
      <trkpt lat="42.85297" lon="1.19283">
        <ele>553.1</ele>
        <time>2022-05-21T06:41:24.000Z</time>
      </trkpt>
      <trkpt lat="42.8529" lon="1.19273">
        <ele>553</ele>
        <time>2022-05-21T06:41:29.000Z</time>
      </trkpt>
      <trkpt lat="42.85283" lon="1.19262">
        <ele>553.3</ele>
        <time>2022-05-21T06:41:34.000Z</time>
      </trkpt>
      <trkpt lat="42.85283" lon="1.1925">
        <ele>553.5</ele>
        <time>2022-05-21T06:41:39.000Z</time>
      </trkpt>
      <trkpt lat="42.85287" lon="1.19237">
        <ele>553.9</ele>
        <time>2022-05-21T06:41:43.000Z</time>
      </trkpt>
      <trkpt lat="42.85287" lon="1.19223">
        <ele>554.4</ele>
        <time>2022-05-21T06:41:47.000Z</time>
      </trkpt>
      <trkpt lat="42.85286" lon="1.19211">
        <ele>555.3</ele>
        <time>2022-05-21T06:41:51.000Z</time>
      </trkpt>
      <trkpt lat="42.85282" lon="1.19199">
        <ele>556</ele>
        <time>2022-05-21T06:41:55.000Z</time>
      </trkpt>
      <trkpt lat="42.85276" lon="1.19188">
        <ele>557</ele>
        <time>2022-05-21T06:41:59.000Z</time>
      </trkpt>
      <trkpt lat="42.85268" lon="1.1918">
        <ele>557.6</ele>
        <time>2022-05-21T06:42:03.000Z</time>
      </trkpt>
      <trkpt lat="42.85258" lon="1.1918">
        <ele>558.4</ele>
        <time>2022-05-21T06:42:07.000Z</time>
      </trkpt>
      <trkpt lat="42.85248" lon="1.19182">
        <ele>559.7</ele>
        <time>2022-05-21T06:42:11.000Z</time>
      </trkpt>
      <trkpt lat="42.85239" lon="1.19183">
        <ele>561.1</ele>
        <time>2022-05-21T06:42:15.000Z</time>
      </trkpt>
      <trkpt lat="42.8523" lon="1.1918">
        <ele>562.9</ele>
        <time>2022-05-21T06:42:21.000Z</time>
      </trkpt>
      <trkpt lat="42.85228" lon="1.19179">
        <ele>563.5</ele>
        <time>2022-05-21T06:42:24.000Z</time>
      </trkpt>
      <trkpt lat="42.85227" lon="1.19179">
        <ele>568</ele>
        <time>2022-05-21T06:43:22.000Z</time>
      </trkpt>
      <trkpt lat="42.85227" lon="1.1918">
        <ele>569.5</ele>
        <time>2022-05-21T06:44:42.000Z</time>
      </trkpt>
      <trkpt lat="42.85216" lon="1.19177">
        <ele>569.3</ele>
        <time>2022-05-21T06:44:56.000Z</time>
      </trkpt>
      <trkpt lat="42.85207" lon="1.19176">
        <ele>569.1</ele>
        <time>2022-05-21T06:45:00.000Z</time>
      </trkpt>
      <trkpt lat="42.85197" lon="1.19175">
        <ele>569.8</ele>
        <time>2022-05-21T06:45:04.000Z</time>
      </trkpt>
      <trkpt lat="42.85188" lon="1.19172">
        <ele>569.7</ele>
        <time>2022-05-21T06:45:08.000Z</time>
      </trkpt>
      <trkpt lat="42.85177" lon="1.19176">
        <ele>569.9</ele>
        <time>2022-05-21T06:45:12.000Z</time>
      </trkpt>
      <trkpt lat="42.85168" lon="1.19184">
        <ele>570.5</ele>
        <time>2022-05-21T06:45:17.000Z</time>
      </trkpt>
      <trkpt lat="42.85158" lon="1.19191">
        <ele>571.3</ele>
        <time>2022-05-21T06:45:22.000Z</time>
      </trkpt>
      <trkpt lat="42.85148" lon="1.19187">
        <ele>573.1</ele>
        <time>2022-05-21T06:45:28.000Z</time>
      </trkpt>
      <trkpt lat="42.85141" lon="1.19179">
        <ele>574.4</ele>
        <time>2022-05-21T06:45:34.000Z</time>
      </trkpt>
      <trkpt lat="42.85132" lon="1.1917">
        <ele>576</ele>
        <time>2022-05-21T06:45:40.000Z</time>
      </trkpt>
      <trkpt lat="42.85124" lon="1.19162">
        <ele>577.4</ele>
        <time>2022-05-21T06:45:46.000Z</time>
      </trkpt>
      <trkpt lat="42.85117" lon="1.19159">
        <ele>578.8</ele>
        <time>2022-05-21T06:45:52.000Z</time>
      </trkpt>
      <trkpt lat="42.85117" lon="1.19158">
        <ele>579.8</ele>
        <time>2022-05-21T06:45:58.000Z</time>
      </trkpt>
      <trkpt lat="42.85107" lon="1.19154">
        <ele>583.8</ele>
        <time>2022-05-21T06:46:33.000Z</time>
      </trkpt>
      <trkpt lat="42.85104" lon="1.19153">
        <ele>584</ele>
        <time>2022-05-21T06:46:37.000Z</time>
      </trkpt>
      <trkpt lat="42.85103" lon="1.19153">
        <ele>584.3</ele>
        <time>2022-05-21T06:46:46.000Z</time>
      </trkpt>
      <trkpt lat="42.85092" lon="1.19152">
        <ele>583.3</ele>
        <time>2022-05-21T06:46:54.000Z</time>
      </trkpt>
      <trkpt lat="42.85084" lon="1.19146">
        <ele>583.3</ele>
        <time>2022-05-21T06:46:58.000Z</time>
      </trkpt>
      <trkpt lat="42.85075" lon="1.19139">
        <ele>583</ele>
        <time>2022-05-21T06:47:03.000Z</time>
      </trkpt>
      <trkpt lat="42.85066" lon="1.19134">
        <ele>583</ele>
        <time>2022-05-21T06:47:08.000Z</time>
      </trkpt>
      <trkpt lat="42.85057" lon="1.19129">
        <ele>583.1</ele>
        <time>2022-05-21T06:47:13.000Z</time>
      </trkpt>
      <trkpt lat="42.85048" lon="1.19126">
        <ele>582.9</ele>
        <time>2022-05-21T06:47:19.000Z</time>
      </trkpt>
      <trkpt lat="42.85048" lon="1.19125">
        <ele>583.1</ele>
        <time>2022-05-21T06:47:22.000Z</time>
      </trkpt>
      <trkpt lat="42.85047" lon="1.19125">
        <ele>583.1</ele>
        <time>2022-05-21T06:47:24.000Z</time>
      </trkpt>
      <trkpt lat="42.85038" lon="1.19122">
        <ele>583.7</ele>
        <time>2022-05-21T06:47:36.000Z</time>
      </trkpt>
      <trkpt lat="42.85029" lon="1.19114">
        <ele>583.9</ele>
        <time>2022-05-21T06:47:42.000Z</time>
      </trkpt>
      <trkpt lat="42.85021" lon="1.19106">
        <ele>584.6</ele>
        <time>2022-05-21T06:47:48.000Z</time>
      </trkpt>
      <trkpt lat="42.85013" lon="1.19099">
        <ele>586</ele>
        <time>2022-05-21T06:47:57.000Z</time>
      </trkpt>
      <trkpt lat="42.85013" lon="1.19098">
        <ele>586.2</ele>
        <time>2022-05-21T06:48:00.000Z</time>
      </trkpt>
      <trkpt lat="42.85012" lon="1.19098">
        <ele>586.7</ele>
        <time>2022-05-21T06:48:03.000Z</time>
      </trkpt>
      <trkpt lat="42.85005" lon="1.1909">
        <ele>587</ele>
        <time>2022-05-21T06:48:09.000Z</time>
      </trkpt>
      <trkpt lat="42.85" lon="1.1908">
        <ele>587.6</ele>
        <time>2022-05-21T06:48:14.000Z</time>
      </trkpt>
      <trkpt lat="42.84996" lon="1.19068">
        <ele>588.6</ele>
        <time>2022-05-21T06:48:19.000Z</time>
      </trkpt>
      <trkpt lat="42.84994" lon="1.19056">
        <ele>590.2</ele>
        <time>2022-05-21T06:48:24.000Z</time>
      </trkpt>
      <trkpt lat="42.84994" lon="1.19042">
        <ele>592.1</ele>
        <time>2022-05-21T06:48:29.000Z</time>
      </trkpt>
      <trkpt lat="42.84991" lon="1.19031">
        <ele>593.6</ele>
        <time>2022-05-21T06:48:34.000Z</time>
      </trkpt>
      <trkpt lat="42.84984" lon="1.1902">
        <ele>595.8</ele>
        <time>2022-05-21T06:48:40.000Z</time>
      </trkpt>
      <trkpt lat="42.8498" lon="1.19008">
        <ele>597.7</ele>
        <time>2022-05-21T06:48:45.000Z</time>
      </trkpt>
      <trkpt lat="42.84976" lon="1.18997">
        <ele>599.9</ele>
        <time>2022-05-21T06:48:52.000Z</time>
      </trkpt>
      <trkpt lat="42.84966" lon="1.18991">
        <ele>601.8</ele>
        <time>2022-05-21T06:48:58.000Z</time>
      </trkpt>
      <trkpt lat="42.84956" lon="1.18995">
        <ele>603</ele>
        <time>2022-05-21T06:49:03.000Z</time>
      </trkpt>
      <trkpt lat="42.84946" lon="1.19">
        <ele>603.9</ele>
        <time>2022-05-21T06:49:07.000Z</time>
      </trkpt>
      <trkpt lat="42.84936" lon="1.19006">
        <ele>605.1</ele>
        <time>2022-05-21T06:49:11.000Z</time>
      </trkpt>
      <trkpt lat="42.84928" lon="1.19011">
        <ele>606.3</ele>
        <time>2022-05-21T06:49:16.000Z</time>
      </trkpt>
      <trkpt lat="42.84918" lon="1.19006">
        <ele>606.6</ele>
        <time>2022-05-21T06:49:20.000Z</time>
      </trkpt>
      <trkpt lat="42.84908" lon="1.19005">
        <ele>607.4</ele>
        <time>2022-05-21T06:49:25.000Z</time>
      </trkpt>
      <trkpt lat="42.84897" lon="1.19008">
        <ele>608.2</ele>
        <time>2022-05-21T06:49:29.000Z</time>
      </trkpt>
      <trkpt lat="42.84893" lon="1.19007">
        <ele>608.4</ele>
        <time>2022-05-21T06:49:33.000Z</time>
      </trkpt>
      <trkpt lat="42.84892" lon="1.19007">
        <ele>609.8</ele>
        <time>2022-05-21T06:49:56.000Z</time>
      </trkpt>
      <trkpt lat="42.84892" lon="1.19006">
        <ele>609.1</ele>
        <time>2022-05-21T06:50:15.000Z</time>
      </trkpt>
      <trkpt lat="42.84883" lon="1.19015">
        <ele>607.2</ele>
        <time>2022-05-21T06:51:00.000Z</time>
      </trkpt>
      <trkpt lat="42.84872" lon="1.19024">
        <ele>607.5</ele>
        <time>2022-05-21T06:51:03.000Z</time>
      </trkpt>
      <trkpt lat="42.84862" lon="1.19029">
        <ele>607.4</ele>
        <time>2022-05-21T06:51:06.000Z</time>
      </trkpt>
      <trkpt lat="42.84853" lon="1.19034">
        <ele>607.6</ele>
        <time>2022-05-21T06:51:10.000Z</time>
      </trkpt>
      <trkpt lat="42.84843" lon="1.19038">
        <ele>607</ele>
        <time>2022-05-21T06:51:15.000Z</time>
      </trkpt>
      <trkpt lat="42.84833" lon="1.19039">
        <ele>607.5</ele>
        <time>2022-05-21T06:51:20.000Z</time>
      </trkpt>
      <trkpt lat="42.84824" lon="1.19036">
        <ele>608.3</ele>
        <time>2022-05-21T06:51:25.000Z</time>
      </trkpt>
      <trkpt lat="42.84814" lon="1.19032">
        <ele>608.5</ele>
        <time>2022-05-21T06:51:32.000Z</time>
      </trkpt>
      <trkpt lat="42.84805" lon="1.19027">
        <ele>608.8</ele>
        <time>2022-05-21T06:51:37.000Z</time>
      </trkpt>
      <trkpt lat="42.84797" lon="1.19021">
        <ele>609.2</ele>
        <time>2022-05-21T06:51:42.000Z</time>
      </trkpt>
      <trkpt lat="42.84794" lon="1.19009">
        <ele>609.7</ele>
        <time>2022-05-21T06:51:47.000Z</time>
      </trkpt>
      <trkpt lat="42.84798" lon="1.18997">
        <ele>610.4</ele>
        <time>2022-05-21T06:51:51.000Z</time>
      </trkpt>
      <trkpt lat="42.848" lon="1.18984">
        <ele>611.5</ele>
        <time>2022-05-21T06:51:56.000Z</time>
      </trkpt>
      <trkpt lat="42.84802" lon="1.18971">
        <ele>611.9</ele>
        <time>2022-05-21T06:52:01.000Z</time>
      </trkpt>
      <trkpt lat="42.84802" lon="1.18957">
        <ele>612.8</ele>
        <time>2022-05-21T06:52:06.000Z</time>
      </trkpt>
      <trkpt lat="42.84802" lon="1.18943">
        <ele>613.7</ele>
        <time>2022-05-21T06:52:12.000Z</time>
      </trkpt>
      <trkpt lat="42.84803" lon="1.1893">
        <ele>614.4</ele>
        <time>2022-05-21T06:52:17.000Z</time>
      </trkpt>
      <trkpt lat="42.84804" lon="1.18916">
        <ele>615.3</ele>
        <time>2022-05-21T06:52:22.000Z</time>
      </trkpt>
      <trkpt lat="42.84803" lon="1.189">
        <ele>615.7</ele>
        <time>2022-05-21T06:52:27.000Z</time>
      </trkpt>
      <trkpt lat="42.84802" lon="1.18888">
        <ele>616.3</ele>
        <time>2022-05-21T06:52:31.000Z</time>
      </trkpt>
      <trkpt lat="42.84804" lon="1.18874">
        <ele>617</ele>
        <time>2022-05-21T06:52:35.000Z</time>
      </trkpt>
      <trkpt lat="42.84807" lon="1.18859">
        <ele>617.7</ele>
        <time>2022-05-21T06:52:40.000Z</time>
      </trkpt>
      <trkpt lat="42.8481" lon="1.18845">
        <ele>618.7</ele>
        <time>2022-05-21T06:52:45.000Z</time>
      </trkpt>
      <trkpt lat="42.84811" lon="1.18833">
        <ele>618.8</ele>
        <time>2022-05-21T06:52:50.000Z</time>
      </trkpt>
      <trkpt lat="42.84812" lon="1.18821">
        <ele>619.2</ele>
        <time>2022-05-21T06:52:54.000Z</time>
      </trkpt>
      <trkpt lat="42.8481" lon="1.18808">
        <ele>619</ele>
        <time>2022-05-21T06:52:59.000Z</time>
      </trkpt>
      <trkpt lat="42.8481" lon="1.18795">
        <ele>618.9</ele>
        <time>2022-05-21T06:53:04.000Z</time>
      </trkpt>
      <trkpt lat="42.8481" lon="1.18781">
        <ele>618.3</ele>
        <time>2022-05-21T06:53:11.000Z</time>
      </trkpt>
      <trkpt lat="42.84807" lon="1.18769">
        <ele>617.8</ele>
        <time>2022-05-21T06:53:21.000Z</time>
      </trkpt>
      <trkpt lat="42.84806" lon="1.18755">
        <ele>617.4</ele>
        <time>2022-05-21T06:53:29.000Z</time>
      </trkpt>
      <trkpt lat="42.84804" lon="1.18742">
        <ele>616.5</ele>
        <time>2022-05-21T06:53:33.000Z</time>
      </trkpt>
      <trkpt lat="42.84803" lon="1.18727">
        <ele>616.3</ele>
        <time>2022-05-21T06:53:37.000Z</time>
      </trkpt>
      <trkpt lat="42.84804" lon="1.18715">
        <ele>616</ele>
        <time>2022-05-21T06:53:42.000Z</time>
      </trkpt>
      <trkpt lat="42.84806" lon="1.18703">
        <ele>615.9</ele>
        <time>2022-05-21T06:53:47.000Z</time>
      </trkpt>
      <trkpt lat="42.848" lon="1.1869">
        <ele>614.7</ele>
        <time>2022-05-21T06:53:53.000Z</time>
      </trkpt>
      <trkpt lat="42.84796" lon="1.18679">
        <ele>613.6</ele>
        <time>2022-05-21T06:53:59.000Z</time>
      </trkpt>
      <trkpt lat="42.84792" lon="1.18667">
        <ele>613.1</ele>
        <time>2022-05-21T06:54:05.000Z</time>
      </trkpt>
      <trkpt lat="42.84792" lon="1.18654">
        <ele>612.4</ele>
        <time>2022-05-21T06:54:11.000Z</time>
      </trkpt>
      <trkpt lat="42.84795" lon="1.18642">
        <ele>612.2</ele>
        <time>2022-05-21T06:54:16.000Z</time>
      </trkpt>
      <trkpt lat="42.84801" lon="1.18631">
        <ele>612.1</ele>
        <time>2022-05-21T06:54:21.000Z</time>
      </trkpt>
      <trkpt lat="42.84807" lon="1.18619">
        <ele>612.2</ele>
        <time>2022-05-21T06:54:26.000Z</time>
      </trkpt>
      <trkpt lat="42.84811" lon="1.18607">
        <ele>612.7</ele>
        <time>2022-05-21T06:54:30.000Z</time>
      </trkpt>
      <trkpt lat="42.84812" lon="1.18595">
        <ele>613.1</ele>
        <time>2022-05-21T06:54:34.000Z</time>
      </trkpt>
      <trkpt lat="42.84812" lon="1.18581">
        <ele>613.3</ele>
        <time>2022-05-21T06:54:39.000Z</time>
      </trkpt>
      <trkpt lat="42.84802" lon="1.18579">
        <ele>612.9</ele>
        <time>2022-05-21T06:54:44.000Z</time>
      </trkpt>
      <trkpt lat="42.84791" lon="1.18576">
        <ele>613.1</ele>
        <time>2022-05-21T06:54:49.000Z</time>
      </trkpt>
      <trkpt lat="42.84782" lon="1.18572">
        <ele>613.3</ele>
        <time>2022-05-21T06:54:54.000Z</time>
      </trkpt>
      <trkpt lat="42.84775" lon="1.18583">
        <ele>614.1</ele>
        <time>2022-05-21T06:55:02.000Z</time>
      </trkpt>
      <trkpt lat="42.84775" lon="1.18596">
        <ele>614.8</ele>
        <time>2022-05-21T06:55:08.000Z</time>
      </trkpt>
      <trkpt lat="42.84774" lon="1.18597">
        <ele>618.6</ele>
        <time>2022-05-21T06:55:43.000Z</time>
      </trkpt>
      <trkpt lat="42.84774" lon="1.18598">
        <ele>618</ele>
        <time>2022-05-21T06:56:38.000Z</time>
      </trkpt>
      <trkpt lat="42.84775" lon="1.18612">
        <ele>618.4</ele>
        <time>2022-05-21T06:56:44.000Z</time>
      </trkpt>
      <trkpt lat="42.84773" lon="1.18625">
        <ele>618.8</ele>
        <time>2022-05-21T06:56:50.000Z</time>
      </trkpt>
      <trkpt lat="42.84771" lon="1.18637">
        <ele>619.7</ele>
        <time>2022-05-21T06:56:55.000Z</time>
      </trkpt>
      <trkpt lat="42.84766" lon="1.18649">
        <ele>619.7</ele>
        <time>2022-05-21T06:57:00.000Z</time>
      </trkpt>
      <trkpt lat="42.84761" lon="1.18661">
        <ele>620.9</ele>
        <time>2022-05-21T06:57:05.000Z</time>
      </trkpt>
      <trkpt lat="42.84759" lon="1.18673">
        <ele>621.3</ele>
        <time>2022-05-21T06:57:10.000Z</time>
      </trkpt>
      <trkpt lat="42.84756" lon="1.18685">
        <ele>622.4</ele>
        <time>2022-05-21T06:57:15.000Z</time>
      </trkpt>
      <trkpt lat="42.8475" lon="1.18696">
        <ele>622.9</ele>
        <time>2022-05-21T06:57:20.000Z</time>
      </trkpt>
      <trkpt lat="42.84746" lon="1.18709">
        <ele>624.3</ele>
        <time>2022-05-21T06:57:26.000Z</time>
      </trkpt>
      <trkpt lat="42.8474" lon="1.1872">
        <ele>625.9</ele>
        <time>2022-05-21T06:57:32.000Z</time>
      </trkpt>
      <trkpt lat="42.84734" lon="1.18732">
        <ele>627.9</ele>
        <time>2022-05-21T06:57:38.000Z</time>
      </trkpt>
      <trkpt lat="42.8473" lon="1.18743">
        <ele>629.2</ele>
        <time>2022-05-21T06:57:43.000Z</time>
      </trkpt>
      <trkpt lat="42.84725" lon="1.18754">
        <ele>630.2</ele>
        <time>2022-05-21T06:57:48.000Z</time>
      </trkpt>
      <trkpt lat="42.84719" lon="1.18764">
        <ele>631.3</ele>
        <time>2022-05-21T06:57:53.000Z</time>
      </trkpt>
      <trkpt lat="42.84714" lon="1.18774">
        <ele>632</ele>
        <time>2022-05-21T06:57:58.000Z</time>
      </trkpt>
      <trkpt lat="42.84708" lon="1.18784">
        <ele>632.9</ele>
        <time>2022-05-21T06:58:03.000Z</time>
      </trkpt>
      <trkpt lat="42.84701" lon="1.18793">
        <ele>633.4</ele>
        <time>2022-05-21T06:58:08.000Z</time>
      </trkpt>
      <trkpt lat="42.84692" lon="1.18798">
        <ele>633.9</ele>
        <time>2022-05-21T06:58:13.000Z</time>
      </trkpt>
      <trkpt lat="42.84682" lon="1.18798">
        <ele>634.6</ele>
        <time>2022-05-21T06:58:18.000Z</time>
      </trkpt>
      <trkpt lat="42.84672" lon="1.18794">
        <ele>635</ele>
        <time>2022-05-21T06:58:23.000Z</time>
      </trkpt>
      <trkpt lat="42.84666" lon="1.18784">
        <ele>635.7</ele>
        <time>2022-05-21T06:58:29.000Z</time>
      </trkpt>
      <trkpt lat="42.84676" lon="1.18785">
        <ele>636.7</ele>
        <time>2022-05-21T06:58:35.000Z</time>
      </trkpt>
      <trkpt lat="42.84687" lon="1.18783">
        <ele>637.7</ele>
        <time>2022-05-21T06:58:42.000Z</time>
      </trkpt>
      <trkpt lat="42.84696" lon="1.18777">
        <ele>638.3</ele>
        <time>2022-05-21T06:58:47.000Z</time>
      </trkpt>
      <trkpt lat="42.84703" lon="1.18768">
        <ele>639.4</ele>
        <time>2022-05-21T06:58:51.000Z</time>
      </trkpt>
      <trkpt lat="42.84708" lon="1.18756">
        <ele>639.9</ele>
        <time>2022-05-21T06:58:56.000Z</time>
      </trkpt>
      <trkpt lat="42.8471" lon="1.18743">
        <ele>640.7</ele>
        <time>2022-05-21T06:59:01.000Z</time>
      </trkpt>
      <trkpt lat="42.84712" lon="1.1873">
        <ele>641.2</ele>
        <time>2022-05-21T06:59:06.000Z</time>
      </trkpt>
      <trkpt lat="42.84714" lon="1.18717">
        <ele>642.3</ele>
        <time>2022-05-21T06:59:11.000Z</time>
      </trkpt>
      <trkpt lat="42.84716" lon="1.18703">
        <ele>642.5</ele>
        <time>2022-05-21T06:59:16.000Z</time>
      </trkpt>
      <trkpt lat="42.8472" lon="1.1869">
        <ele>643.6</ele>
        <time>2022-05-21T06:59:21.000Z</time>
      </trkpt>
      <trkpt lat="42.8472" lon="1.18675">
        <ele>644.4</ele>
        <time>2022-05-21T06:59:27.000Z</time>
      </trkpt>
      <trkpt lat="42.84723" lon="1.18661">
        <ele>645.6</ele>
        <time>2022-05-21T06:59:32.000Z</time>
      </trkpt>
      <trkpt lat="42.84723" lon="1.18647">
        <ele>646.2</ele>
        <time>2022-05-21T06:59:37.000Z</time>
      </trkpt>
      <trkpt lat="42.84725" lon="1.18633">
        <ele>647.8</ele>
        <time>2022-05-21T06:59:42.000Z</time>
      </trkpt>
      <trkpt lat="42.84723" lon="1.1862">
        <ele>649</ele>
        <time>2022-05-21T06:59:47.000Z</time>
      </trkpt>
      <trkpt lat="42.84723" lon="1.18606">
        <ele>650.8</ele>
        <time>2022-05-21T06:59:53.000Z</time>
      </trkpt>
      <trkpt lat="42.8472" lon="1.18592">
        <ele>651.9</ele>
        <time>2022-05-21T06:59:59.000Z</time>
      </trkpt>
      <trkpt lat="42.84716" lon="1.18581">
        <ele>653.3</ele>
        <time>2022-05-21T07:00:05.000Z</time>
      </trkpt>
      <trkpt lat="42.84712" lon="1.18568">
        <ele>654.5</ele>
        <time>2022-05-21T07:00:11.000Z</time>
      </trkpt>
      <trkpt lat="42.84708" lon="1.18555">
        <ele>655.9</ele>
        <time>2022-05-21T07:00:18.000Z</time>
      </trkpt>
      <trkpt lat="42.84707" lon="1.18542">
        <ele>657.5</ele>
        <time>2022-05-21T07:00:24.000Z</time>
      </trkpt>
      <trkpt lat="42.84704" lon="1.18529">
        <ele>658.7</ele>
        <time>2022-05-21T07:00:30.000Z</time>
      </trkpt>
      <trkpt lat="42.847" lon="1.18516">
        <ele>659.9</ele>
        <time>2022-05-21T07:00:35.000Z</time>
      </trkpt>
      <trkpt lat="42.84699" lon="1.18503">
        <ele>661.5</ele>
        <time>2022-05-21T07:00:40.000Z</time>
      </trkpt>
      <trkpt lat="42.84694" lon="1.18492">
        <ele>663</ele>
        <time>2022-05-21T07:00:46.000Z</time>
      </trkpt>
      <trkpt lat="42.84694" lon="1.18479">
        <ele>663.6</ele>
        <time>2022-05-21T07:00:51.000Z</time>
      </trkpt>
      <trkpt lat="42.8469" lon="1.18467">
        <ele>665.2</ele>
        <time>2022-05-21T07:00:57.000Z</time>
      </trkpt>
      <trkpt lat="42.84695" lon="1.18455">
        <ele>666</ele>
        <time>2022-05-21T07:01:04.000Z</time>
      </trkpt>
      <trkpt lat="42.84704" lon="1.1845">
        <ele>667.1</ele>
        <time>2022-05-21T07:01:09.000Z</time>
      </trkpt>
      <trkpt lat="42.84711" lon="1.18458">
        <ele>667.8</ele>
        <time>2022-05-21T07:01:17.000Z</time>
      </trkpt>
      <trkpt lat="42.84719" lon="1.18468">
        <ele>669</ele>
        <time>2022-05-21T07:01:24.000Z</time>
      </trkpt>
      <trkpt lat="42.84729" lon="1.18471">
        <ele>669.7</ele>
        <time>2022-05-21T07:01:31.000Z</time>
      </trkpt>
      <trkpt lat="42.84739" lon="1.18473">
        <ele>671.2</ele>
        <time>2022-05-21T07:01:36.000Z</time>
      </trkpt>
      <trkpt lat="42.84749" lon="1.18469">
        <ele>672.3</ele>
        <time>2022-05-21T07:01:41.000Z</time>
      </trkpt>
      <trkpt lat="42.84757" lon="1.18461">
        <ele>673.1</ele>
        <time>2022-05-21T07:01:46.000Z</time>
      </trkpt>
      <trkpt lat="42.84766" lon="1.18455">
        <ele>674</ele>
        <time>2022-05-21T07:01:50.000Z</time>
      </trkpt>
      <trkpt lat="42.84772" lon="1.18445">
        <ele>674.8</ele>
        <time>2022-05-21T07:01:55.000Z</time>
      </trkpt>
      <trkpt lat="42.84778" lon="1.18433">
        <ele>675.8</ele>
        <time>2022-05-21T07:02:01.000Z</time>
      </trkpt>
      <trkpt lat="42.84782" lon="1.18419">
        <ele>676.6</ele>
        <time>2022-05-21T07:02:07.000Z</time>
      </trkpt>
      <trkpt lat="42.84786" lon="1.18407">
        <ele>677.3</ele>
        <time>2022-05-21T07:02:12.000Z</time>
      </trkpt>
      <trkpt lat="42.84792" lon="1.18396">
        <ele>677.8</ele>
        <time>2022-05-21T07:02:17.000Z</time>
      </trkpt>
      <trkpt lat="42.84798" lon="1.18385">
        <ele>678.7</ele>
        <time>2022-05-21T07:02:22.000Z</time>
      </trkpt>
      <trkpt lat="42.84802" lon="1.18371">
        <ele>679.7</ele>
        <time>2022-05-21T07:02:28.000Z</time>
      </trkpt>
      <trkpt lat="42.84804" lon="1.18359">
        <ele>680.6</ele>
        <time>2022-05-21T07:02:33.000Z</time>
      </trkpt>
      <trkpt lat="42.84805" lon="1.18344">
        <ele>682</ele>
        <time>2022-05-21T07:02:39.000Z</time>
      </trkpt>
      <trkpt lat="42.84808" lon="1.1833">
        <ele>682.6</ele>
        <time>2022-05-21T07:02:44.000Z</time>
      </trkpt>
      <trkpt lat="42.84813" lon="1.18317">
        <ele>683.6</ele>
        <time>2022-05-21T07:02:49.000Z</time>
      </trkpt>
      <trkpt lat="42.84816" lon="1.18304">
        <ele>684.5</ele>
        <time>2022-05-21T07:02:54.000Z</time>
      </trkpt>
      <trkpt lat="42.84819" lon="1.18292">
        <ele>685.1</ele>
        <time>2022-05-21T07:02:59.000Z</time>
      </trkpt>
      <trkpt lat="42.84823" lon="1.1828">
        <ele>685.4</ele>
        <time>2022-05-21T07:03:04.000Z</time>
      </trkpt>
      <trkpt lat="42.84827" lon="1.18267">
        <ele>685.5</ele>
        <time>2022-05-21T07:03:09.000Z</time>
      </trkpt>
      <trkpt lat="42.84829" lon="1.18254">
        <ele>685.7</ele>
        <time>2022-05-21T07:03:14.000Z</time>
      </trkpt>
      <trkpt lat="42.84833" lon="1.18241">
        <ele>686.7</ele>
        <time>2022-05-21T07:03:19.000Z</time>
      </trkpt>
      <trkpt lat="42.84836" lon="1.18229">
        <ele>687.3</ele>
        <time>2022-05-21T07:03:24.000Z</time>
      </trkpt>
      <trkpt lat="42.84839" lon="1.18217">
        <ele>687.9</ele>
        <time>2022-05-21T07:03:29.000Z</time>
      </trkpt>
      <trkpt lat="42.84841" lon="1.18205">
        <ele>688.6</ele>
        <time>2022-05-21T07:03:34.000Z</time>
      </trkpt>
      <trkpt lat="42.84841" lon="1.18192">
        <ele>689.4</ele>
        <time>2022-05-21T07:03:39.000Z</time>
      </trkpt>
      <trkpt lat="42.84844" lon="1.1818">
        <ele>690.3</ele>
        <time>2022-05-21T07:03:44.000Z</time>
      </trkpt>
      <trkpt lat="42.84847" lon="1.18166">
        <ele>692</ele>
        <time>2022-05-21T07:03:50.000Z</time>
      </trkpt>
      <trkpt lat="42.84851" lon="1.18152">
        <ele>693.1</ele>
        <time>2022-05-21T07:03:56.000Z</time>
      </trkpt>
      <trkpt lat="42.84854" lon="1.1814">
        <ele>694.5</ele>
        <time>2022-05-21T07:04:01.000Z</time>
      </trkpt>
      <trkpt lat="42.84854" lon="1.18127">
        <ele>695.3</ele>
        <time>2022-05-21T07:04:06.000Z</time>
      </trkpt>
      <trkpt lat="42.84855" lon="1.18114">
        <ele>696.2</ele>
        <time>2022-05-21T07:04:11.000Z</time>
      </trkpt>
      <trkpt lat="42.84859" lon="1.18103">
        <ele>697</ele>
        <time>2022-05-21T07:04:16.000Z</time>
      </trkpt>
      <trkpt lat="42.84862" lon="1.18089">
        <ele>698.5</ele>
        <time>2022-05-21T07:04:22.000Z</time>
      </trkpt>
      <trkpt lat="42.8486" lon="1.18076">
        <ele>699.2</ele>
        <time>2022-05-21T07:04:28.000Z</time>
      </trkpt>
      <trkpt lat="42.84863" lon="1.18064">
        <ele>700.8</ele>
        <time>2022-05-21T07:04:34.000Z</time>
      </trkpt>
      <trkpt lat="42.84867" lon="1.18053">
        <ele>702.1</ele>
        <time>2022-05-21T07:04:39.000Z</time>
      </trkpt>
      <trkpt lat="42.8487" lon="1.1804">
        <ele>702.9</ele>
        <time>2022-05-21T07:04:45.000Z</time>
      </trkpt>
      <trkpt lat="42.84871" lon="1.18027">
        <ele>704.8</ele>
        <time>2022-05-21T07:04:52.000Z</time>
      </trkpt>
      <trkpt lat="42.84868" lon="1.18013">
        <ele>706.6</ele>
        <time>2022-05-21T07:04:58.000Z</time>
      </trkpt>
      <trkpt lat="42.84865" lon="1.18002">
        <ele>707.7</ele>
        <time>2022-05-21T07:05:03.000Z</time>
      </trkpt>
      <trkpt lat="42.84865" lon="1.17988">
        <ele>708</ele>
        <time>2022-05-21T07:05:08.000Z</time>
      </trkpt>
      <trkpt lat="42.84864" lon="1.17975">
        <ele>708.8</ele>
        <time>2022-05-21T07:05:12.000Z</time>
      </trkpt>
      <trkpt lat="42.84866" lon="1.17963">
        <ele>709.6</ele>
        <time>2022-05-21T07:05:16.000Z</time>
      </trkpt>
      <trkpt lat="42.84876" lon="1.17962">
        <ele>711</ele>
        <time>2022-05-21T07:05:22.000Z</time>
      </trkpt>
      <trkpt lat="42.84883" lon="1.1797">
        <ele>712.3</ele>
        <time>2022-05-21T07:05:28.000Z</time>
      </trkpt>
      <trkpt lat="42.84892" lon="1.17974">
        <ele>713.2</ele>
        <time>2022-05-21T07:05:33.000Z</time>
      </trkpt>
      <trkpt lat="42.84901" lon="1.1798">
        <ele>714.5</ele>
        <time>2022-05-21T07:05:39.000Z</time>
      </trkpt>
      <trkpt lat="42.8491" lon="1.17977">
        <ele>716</ele>
        <time>2022-05-21T07:05:44.000Z</time>
      </trkpt>
      <trkpt lat="42.84913" lon="1.17964">
        <ele>717.4</ele>
        <time>2022-05-21T07:05:50.000Z</time>
      </trkpt>
      <trkpt lat="42.84911" lon="1.1795">
        <ele>718.1</ele>
        <time>2022-05-21T07:05:56.000Z</time>
      </trkpt>
      <trkpt lat="42.8491" lon="1.17936">
        <ele>719.5</ele>
        <time>2022-05-21T07:06:02.000Z</time>
      </trkpt>
      <trkpt lat="42.8491" lon="1.17924">
        <ele>720.2</ele>
        <time>2022-05-21T07:06:08.000Z</time>
      </trkpt>
      <trkpt lat="42.84912" lon="1.17912">
        <ele>721.1</ele>
        <time>2022-05-21T07:06:13.000Z</time>
      </trkpt>
      <trkpt lat="42.84912" lon="1.17898">
        <ele>721.7</ele>
        <time>2022-05-21T07:06:19.000Z</time>
      </trkpt>
      <trkpt lat="42.84916" lon="1.17887">
        <ele>722.6</ele>
        <time>2022-05-21T07:06:24.000Z</time>
      </trkpt>
      <trkpt lat="42.84919" lon="1.17874">
        <ele>723.3</ele>
        <time>2022-05-21T07:06:30.000Z</time>
      </trkpt>
      <trkpt lat="42.84928" lon="1.17872">
        <ele>725.2</ele>
        <time>2022-05-21T07:06:40.000Z</time>
      </trkpt>
      <trkpt lat="42.84937" lon="1.17874">
        <ele>725.9</ele>
        <time>2022-05-21T07:06:44.000Z</time>
      </trkpt>
      <trkpt lat="42.84945" lon="1.17881">
        <ele>726.8</ele>
        <time>2022-05-21T07:06:49.000Z</time>
      </trkpt>
      <trkpt lat="42.84953" lon="1.17889">
        <ele>727.9</ele>
        <time>2022-05-21T07:06:54.000Z</time>
      </trkpt>
      <trkpt lat="42.84959" lon="1.179">
        <ele>728.6</ele>
        <time>2022-05-21T07:06:59.000Z</time>
      </trkpt>
      <trkpt lat="42.84966" lon="1.17911">
        <ele>729.5</ele>
        <time>2022-05-21T07:07:04.000Z</time>
      </trkpt>
      <trkpt lat="42.84972" lon="1.17922">
        <ele>730.4</ele>
        <time>2022-05-21T07:07:09.000Z</time>
      </trkpt>
      <trkpt lat="42.8498" lon="1.17931">
        <ele>731.1</ele>
        <time>2022-05-21T07:07:14.000Z</time>
      </trkpt>
      <trkpt lat="42.84988" lon="1.1794">
        <ele>731.7</ele>
        <time>2022-05-21T07:07:19.000Z</time>
      </trkpt>
      <trkpt lat="42.84997" lon="1.17947">
        <ele>732.2</ele>
        <time>2022-05-21T07:07:24.000Z</time>
      </trkpt>
      <trkpt lat="42.85007" lon="1.1795">
        <ele>732.8</ele>
        <time>2022-05-21T07:07:29.000Z</time>
      </trkpt>
      <trkpt lat="42.85017" lon="1.17947">
        <ele>733.2</ele>
        <time>2022-05-21T07:07:34.000Z</time>
      </trkpt>
      <trkpt lat="42.85024" lon="1.17939">
        <ele>733.7</ele>
        <time>2022-05-21T07:07:39.000Z</time>
      </trkpt>
      <trkpt lat="42.8503" lon="1.17929">
        <ele>734.5</ele>
        <time>2022-05-21T07:07:44.000Z</time>
      </trkpt>
      <trkpt lat="42.85037" lon="1.17918">
        <ele>735.2</ele>
        <time>2022-05-21T07:07:49.000Z</time>
      </trkpt>
      <trkpt lat="42.85047" lon="1.17912">
        <ele>736.2</ele>
        <time>2022-05-21T07:07:54.000Z</time>
      </trkpt>
      <trkpt lat="42.85057" lon="1.17912">
        <ele>736.5</ele>
        <time>2022-05-21T07:07:59.000Z</time>
      </trkpt>
      <trkpt lat="42.85067" lon="1.17914">
        <ele>737.2</ele>
        <time>2022-05-21T07:08:04.000Z</time>
      </trkpt>
      <trkpt lat="42.85076" lon="1.1792">
        <ele>737.4</ele>
        <time>2022-05-21T07:08:09.000Z</time>
      </trkpt>
      <trkpt lat="42.85084" lon="1.17926">
        <ele>738.1</ele>
        <time>2022-05-21T07:08:14.000Z</time>
      </trkpt>
      <trkpt lat="42.85092" lon="1.17934">
        <ele>738.6</ele>
        <time>2022-05-21T07:08:19.000Z</time>
      </trkpt>
      <trkpt lat="42.85099" lon="1.17945">
        <ele>739</ele>
        <time>2022-05-21T07:08:25.000Z</time>
      </trkpt>
      <trkpt lat="42.85104" lon="1.17955">
        <ele>739.7</ele>
        <time>2022-05-21T07:08:30.000Z</time>
      </trkpt>
      <trkpt lat="42.85109" lon="1.17967">
        <ele>740.7</ele>
        <time>2022-05-21T07:08:35.000Z</time>
      </trkpt>
      <trkpt lat="42.85116" lon="1.17978">
        <ele>741.7</ele>
        <time>2022-05-21T07:08:40.000Z</time>
      </trkpt>
      <trkpt lat="42.8512" lon="1.17991">
        <ele>742.2</ele>
        <time>2022-05-21T07:08:45.000Z</time>
      </trkpt>
      <trkpt lat="42.85123" lon="1.18003">
        <ele>743.4</ele>
        <time>2022-05-21T07:08:50.000Z</time>
      </trkpt>
      <trkpt lat="42.85126" lon="1.18015">
        <ele>744.2</ele>
        <time>2022-05-21T07:08:55.000Z</time>
      </trkpt>
      <trkpt lat="42.85128" lon="1.18027">
        <ele>744.6</ele>
        <time>2022-05-21T07:09:00.000Z</time>
      </trkpt>
      <trkpt lat="42.85131" lon="1.1804">
        <ele>745.4</ele>
        <time>2022-05-21T07:09:05.000Z</time>
      </trkpt>
      <trkpt lat="42.85134" lon="1.18052">
        <ele>745.7</ele>
        <time>2022-05-21T07:09:10.000Z</time>
      </trkpt>
      <trkpt lat="42.85138" lon="1.18063">
        <ele>746.2</ele>
        <time>2022-05-21T07:09:15.000Z</time>
      </trkpt>
      <trkpt lat="42.8514" lon="1.18076">
        <ele>746.7</ele>
        <time>2022-05-21T07:09:20.000Z</time>
      </trkpt>
      <trkpt lat="42.85139" lon="1.18089">
        <ele>747.4</ele>
        <time>2022-05-21T07:09:25.000Z</time>
      </trkpt>
      <trkpt lat="42.85136" lon="1.18102">
        <ele>747.6</ele>
        <time>2022-05-21T07:09:30.000Z</time>
      </trkpt>
      <trkpt lat="42.85134" lon="1.18115">
        <ele>748</ele>
        <time>2022-05-21T07:09:35.000Z</time>
      </trkpt>
      <trkpt lat="42.85132" lon="1.18128">
        <ele>748.8</ele>
        <time>2022-05-21T07:09:40.000Z</time>
      </trkpt>
      <trkpt lat="42.8513" lon="1.18141">
        <ele>749.3</ele>
        <time>2022-05-21T07:09:45.000Z</time>
      </trkpt>
      <trkpt lat="42.85139" lon="1.18145">
        <ele>750</ele>
        <time>2022-05-21T07:09:52.000Z</time>
      </trkpt>
      <trkpt lat="42.8514" lon="1.18144">
        <ele>750.4</ele>
        <time>2022-05-21T07:09:54.000Z</time>
      </trkpt>
      <trkpt lat="42.8514" lon="1.18143">
        <ele>751.2</ele>
        <time>2022-05-21T07:10:26.000Z</time>
      </trkpt>
      <trkpt lat="42.85143" lon="1.18141">
        <ele>751.7</ele>
        <time>2022-05-21T07:10:33.000Z</time>
      </trkpt>
      <trkpt lat="42.85143" lon="1.1814">
        <ele>756.6</ele>
        <time>2022-05-21T07:13:56.000Z</time>
      </trkpt>
      <trkpt lat="42.85142" lon="1.1814">
        <ele>756.2</ele>
        <time>2022-05-21T07:14:00.000Z</time>
      </trkpt>
      <trkpt lat="42.85142" lon="1.18139">
        <ele>756.3</ele>
        <time>2022-05-21T07:14:03.000Z</time>
      </trkpt>
      <trkpt lat="42.85143" lon="1.18126">
        <ele>754.2</ele>
        <time>2022-05-21T07:14:28.000Z</time>
      </trkpt>
      <trkpt lat="42.85146" lon="1.18115">
        <ele>753.9</ele>
        <time>2022-05-21T07:14:33.000Z</time>
      </trkpt>
      <trkpt lat="42.8515" lon="1.18103">
        <ele>754.2</ele>
        <time>2022-05-21T07:14:38.000Z</time>
      </trkpt>
      <trkpt lat="42.85154" lon="1.18089">
        <ele>754.6</ele>
        <time>2022-05-21T07:14:44.000Z</time>
      </trkpt>
      <trkpt lat="42.85157" lon="1.18078">
        <ele>754.6</ele>
        <time>2022-05-21T07:14:49.000Z</time>
      </trkpt>
      <trkpt lat="42.8516" lon="1.18064">
        <ele>754.9</ele>
        <time>2022-05-21T07:14:55.000Z</time>
      </trkpt>
      <trkpt lat="42.85163" lon="1.1805">
        <ele>756.1</ele>
        <time>2022-05-21T07:15:01.000Z</time>
      </trkpt>
      <trkpt lat="42.85163" lon="1.18037">
        <ele>756.5</ele>
        <time>2022-05-21T07:15:06.000Z</time>
      </trkpt>
      <trkpt lat="42.85164" lon="1.18024">
        <ele>757.6</ele>
        <time>2022-05-21T07:15:11.000Z</time>
      </trkpt>
      <trkpt lat="42.85166" lon="1.18009">
        <ele>758.4</ele>
        <time>2022-05-21T07:15:17.000Z</time>
      </trkpt>
      <trkpt lat="42.85168" lon="1.17997">
        <ele>759.2</ele>
        <time>2022-05-21T07:15:22.000Z</time>
      </trkpt>
      <trkpt lat="42.8517" lon="1.17983">
        <ele>759.9</ele>
        <time>2022-05-21T07:15:28.000Z</time>
      </trkpt>
      <trkpt lat="42.8517" lon="1.17971">
        <ele>760.8</ele>
        <time>2022-05-21T07:15:33.000Z</time>
      </trkpt>
      <trkpt lat="42.85167" lon="1.17956">
        <ele>762.4</ele>
        <time>2022-05-21T07:15:39.000Z</time>
      </trkpt>
      <trkpt lat="42.85165" lon="1.17943">
        <ele>762.6</ele>
        <time>2022-05-21T07:15:45.000Z</time>
      </trkpt>
      <trkpt lat="42.85162" lon="1.17929">
        <ele>764.1</ele>
        <time>2022-05-21T07:15:51.000Z</time>
      </trkpt>
      <trkpt lat="42.85168" lon="1.17916">
        <ele>765.3</ele>
        <time>2022-05-21T07:15:57.000Z</time>
      </trkpt>
      <trkpt lat="42.85177" lon="1.17912">
        <ele>765.8</ele>
        <time>2022-05-21T07:16:02.000Z</time>
      </trkpt>
      <trkpt lat="42.85186" lon="1.17912">
        <ele>766.6</ele>
        <time>2022-05-21T07:16:07.000Z</time>
      </trkpt>
      <trkpt lat="42.85195" lon="1.17912">
        <ele>766.7</ele>
        <time>2022-05-21T07:16:12.000Z</time>
      </trkpt>
      <trkpt lat="42.85205" lon="1.17912">
        <ele>767.8</ele>
        <time>2022-05-21T07:16:18.000Z</time>
      </trkpt>
      <trkpt lat="42.85216" lon="1.17911">
        <ele>768.4</ele>
        <time>2022-05-21T07:16:24.000Z</time>
      </trkpt>
      <trkpt lat="42.85225" lon="1.1791">
        <ele>769.1</ele>
        <time>2022-05-21T07:16:30.000Z</time>
      </trkpt>
      <trkpt lat="42.85233" lon="1.17906">
        <ele>770.3</ele>
        <time>2022-05-21T07:16:36.000Z</time>
      </trkpt>
      <trkpt lat="42.85241" lon="1.17896">
        <ele>771.3</ele>
        <time>2022-05-21T07:16:43.000Z</time>
      </trkpt>
      <trkpt lat="42.85247" lon="1.17886">
        <ele>773.2</ele>
        <time>2022-05-21T07:16:51.000Z</time>
      </trkpt>
      <trkpt lat="42.85255" lon="1.17879">
        <ele>774.7</ele>
        <time>2022-05-21T07:16:59.000Z</time>
      </trkpt>
      <trkpt lat="42.85264" lon="1.17876">
        <ele>775.9</ele>
        <time>2022-05-21T07:17:08.000Z</time>
      </trkpt>
      <trkpt lat="42.85268" lon="1.1788">
        <ele>776.2</ele>
        <time>2022-05-21T07:17:39.000Z</time>
      </trkpt>
      <trkpt lat="42.8527" lon="1.17894">
        <ele>775.6</ele>
        <time>2022-05-21T07:18:21.000Z</time>
      </trkpt>
      <trkpt lat="42.8527" lon="1.17907">
        <ele>775.1</ele>
        <time>2022-05-21T07:18:26.000Z</time>
      </trkpt>
      <trkpt lat="42.85271" lon="1.1792">
        <ele>776</ele>
        <time>2022-05-21T07:18:31.000Z</time>
      </trkpt>
      <trkpt lat="42.85275" lon="1.17933">
        <ele>777.2</ele>
        <time>2022-05-21T07:18:36.000Z</time>
      </trkpt>
      <trkpt lat="42.85281" lon="1.17942">
        <ele>778.6</ele>
        <time>2022-05-21T07:18:41.000Z</time>
      </trkpt>
      <trkpt lat="42.85286" lon="1.17953">
        <ele>780</ele>
        <time>2022-05-21T07:18:46.000Z</time>
      </trkpt>
      <trkpt lat="42.85292" lon="1.17962">
        <ele>782</ele>
        <time>2022-05-21T07:18:51.000Z</time>
      </trkpt>
      <trkpt lat="42.85294" lon="1.17976">
        <ele>784.6</ele>
        <time>2022-05-21T07:18:58.000Z</time>
      </trkpt>
      <trkpt lat="42.85293" lon="1.17989">
        <ele>787.3</ele>
        <time>2022-05-21T07:19:04.000Z</time>
      </trkpt>
      <trkpt lat="42.85293" lon="1.18003">
        <ele>789.7</ele>
        <time>2022-05-21T07:19:10.000Z</time>
      </trkpt>
      <trkpt lat="42.85298" lon="1.18015">
        <ele>792.3</ele>
        <time>2022-05-21T07:19:16.000Z</time>
      </trkpt>
      <trkpt lat="42.85301" lon="1.18028">
        <ele>794.6</ele>
        <time>2022-05-21T07:19:22.000Z</time>
      </trkpt>
      <trkpt lat="42.85305" lon="1.1804">
        <ele>796.8</ele>
        <time>2022-05-21T07:19:28.000Z</time>
      </trkpt>
      <trkpt lat="42.85314" lon="1.18046">
        <ele>798.8</ele>
        <time>2022-05-21T07:19:34.000Z</time>
      </trkpt>
      <trkpt lat="42.85324" lon="1.18044">
        <ele>800.3</ele>
        <time>2022-05-21T07:19:40.000Z</time>
      </trkpt>
      <trkpt lat="42.85333" lon="1.18039">
        <ele>802.1</ele>
        <time>2022-05-21T07:19:46.000Z</time>
      </trkpt>
      <trkpt lat="42.85342" lon="1.18035">
        <ele>804.1</ele>
        <time>2022-05-21T07:19:52.000Z</time>
      </trkpt>
      <trkpt lat="42.85351" lon="1.18032">
        <ele>806</ele>
        <time>2022-05-21T07:19:58.000Z</time>
      </trkpt>
      <trkpt lat="42.8536" lon="1.18029">
        <ele>808.5</ele>
        <time>2022-05-21T07:20:04.000Z</time>
      </trkpt>
      <trkpt lat="42.8537" lon="1.18029">
        <ele>810.7</ele>
        <time>2022-05-21T07:20:10.000Z</time>
      </trkpt>
      <trkpt lat="42.8538" lon="1.18029">
        <ele>813.3</ele>
        <time>2022-05-21T07:20:16.000Z</time>
      </trkpt>
      <trkpt lat="42.8539" lon="1.1803">
        <ele>816.3</ele>
        <time>2022-05-21T07:20:22.000Z</time>
      </trkpt>
      <trkpt lat="42.854" lon="1.18028">
        <ele>817.7</ele>
        <time>2022-05-21T07:20:27.000Z</time>
      </trkpt>
      <trkpt lat="42.85409" lon="1.18026">
        <ele>819.7</ele>
        <time>2022-05-21T07:20:32.000Z</time>
      </trkpt>
      <trkpt lat="42.85418" lon="1.18025">
        <ele>822</ele>
        <time>2022-05-21T07:20:38.000Z</time>
      </trkpt>
      <trkpt lat="42.85428" lon="1.18025">
        <ele>824</ele>
        <time>2022-05-21T07:20:43.000Z</time>
      </trkpt>
      <trkpt lat="42.85438" lon="1.18028">
        <ele>825.6</ele>
        <time>2022-05-21T07:20:48.000Z</time>
      </trkpt>
      <trkpt lat="42.85447" lon="1.18028">
        <ele>827.2</ele>
        <time>2022-05-21T07:20:53.000Z</time>
      </trkpt>
      <trkpt lat="42.85457" lon="1.18029">
        <ele>829.7</ele>
        <time>2022-05-21T07:20:59.000Z</time>
      </trkpt>
      <trkpt lat="42.85468" lon="1.18029">
        <ele>832.1</ele>
        <time>2022-05-21T07:21:05.000Z</time>
      </trkpt>
      <trkpt lat="42.85478" lon="1.18031">
        <ele>834.1</ele>
        <time>2022-05-21T07:21:10.000Z</time>
      </trkpt>
      <trkpt lat="42.85488" lon="1.18033">
        <ele>835.9</ele>
        <time>2022-05-21T07:21:16.000Z</time>
      </trkpt>
      <trkpt lat="42.85497" lon="1.18037">
        <ele>838.3</ele>
        <time>2022-05-21T07:21:22.000Z</time>
      </trkpt>
      <trkpt lat="42.85506" lon="1.1804">
        <ele>840.7</ele>
        <time>2022-05-21T07:21:28.000Z</time>
      </trkpt>
      <trkpt lat="42.85517" lon="1.18043">
        <ele>843</ele>
        <time>2022-05-21T07:21:35.000Z</time>
      </trkpt>
      <trkpt lat="42.85526" lon="1.18046">
        <ele>845.2</ele>
        <time>2022-05-21T07:21:41.000Z</time>
      </trkpt>
      <trkpt lat="42.85536" lon="1.18049">
        <ele>847.4</ele>
        <time>2022-05-21T07:21:47.000Z</time>
      </trkpt>
      <trkpt lat="42.85546" lon="1.18052">
        <ele>850.2</ele>
        <time>2022-05-21T07:21:54.000Z</time>
      </trkpt>
      <trkpt lat="42.85556" lon="1.18055">
        <ele>852.5</ele>
        <time>2022-05-21T07:22:01.000Z</time>
      </trkpt>
      <trkpt lat="42.85566" lon="1.18057">
        <ele>854.5</ele>
        <time>2022-05-21T07:22:07.000Z</time>
      </trkpt>
      <trkpt lat="42.85575" lon="1.18058">
        <ele>856.4</ele>
        <time>2022-05-21T07:22:12.000Z</time>
      </trkpt>
      <trkpt lat="42.85585" lon="1.18063">
        <ele>859</ele>
        <time>2022-05-21T07:22:20.000Z</time>
      </trkpt>
      <trkpt lat="42.85595" lon="1.18066">
        <ele>861.1</ele>
        <time>2022-05-21T07:22:26.000Z</time>
      </trkpt>
      <trkpt lat="42.85604" lon="1.18069">
        <ele>863</ele>
        <time>2022-05-21T07:22:32.000Z</time>
      </trkpt>
      <trkpt lat="42.85613" lon="1.18072">
        <ele>864.4</ele>
        <time>2022-05-21T07:22:38.000Z</time>
      </trkpt>
      <trkpt lat="42.85624" lon="1.18075">
        <ele>866.3</ele>
        <time>2022-05-21T07:22:46.000Z</time>
      </trkpt>
      <trkpt lat="42.85634" lon="1.18077">
        <ele>867.6</ele>
        <time>2022-05-21T07:22:51.000Z</time>
      </trkpt>
      <trkpt lat="42.85643" lon="1.1808">
        <ele>869.2</ele>
        <time>2022-05-21T07:22:56.000Z</time>
      </trkpt>
      <trkpt lat="42.85653" lon="1.18082">
        <ele>871</ele>
        <time>2022-05-21T07:23:02.000Z</time>
      </trkpt>
      <trkpt lat="42.85664" lon="1.18085">
        <ele>873.6</ele>
        <time>2022-05-21T07:23:08.000Z</time>
      </trkpt>
      <trkpt lat="42.85673" lon="1.18088">
        <ele>876</ele>
        <time>2022-05-21T07:23:14.000Z</time>
      </trkpt>
      <trkpt lat="42.85682" lon="1.18091">
        <ele>877.8</ele>
        <time>2022-05-21T07:23:20.000Z</time>
      </trkpt>
      <trkpt lat="42.85692" lon="1.1809">
        <ele>880.4</ele>
        <time>2022-05-21T07:23:29.000Z</time>
      </trkpt>
      <trkpt lat="42.85693" lon="1.18091">
        <ele>880.6</ele>
        <time>2022-05-21T07:23:32.000Z</time>
      </trkpt>
      <trkpt lat="42.85694" lon="1.18091">
        <ele>882.3</ele>
        <time>2022-05-21T07:23:40.000Z</time>
      </trkpt>
      <trkpt lat="42.85695" lon="1.18091">
        <ele>882.7</ele>
        <time>2022-05-21T07:23:49.000Z</time>
      </trkpt>
      <trkpt lat="42.85698" lon="1.18094">
        <ele>883.5</ele>
        <time>2022-05-21T07:23:55.000Z</time>
      </trkpt>
      <trkpt lat="42.85698" lon="1.18095">
        <ele>884.2</ele>
        <time>2022-05-21T07:24:04.000Z</time>
      </trkpt>
      <trkpt lat="42.85698" lon="1.18096">
        <ele>885</ele>
        <time>2022-05-21T07:24:17.000Z</time>
      </trkpt>
      <trkpt lat="42.85699" lon="1.18096">
        <ele>885.9</ele>
        <time>2022-05-21T07:24:21.000Z</time>
      </trkpt>
      <trkpt lat="42.85698" lon="1.18096">
        <ele>885.5</ele>
        <time>2022-05-21T07:24:27.000Z</time>
      </trkpt>
      <trkpt lat="42.85698" lon="1.18095">
        <ele>885.4</ele>
        <time>2022-05-21T07:25:14.000Z</time>
      </trkpt>
      <trkpt lat="42.85709" lon="1.18091">
        <ele>884.8</ele>
        <time>2022-05-21T07:25:19.000Z</time>
      </trkpt>
      <trkpt lat="42.8572" lon="1.18087">
        <ele>884.7</ele>
        <time>2022-05-21T07:25:22.000Z</time>
      </trkpt>
      <trkpt lat="42.85731" lon="1.18085">
        <ele>885</ele>
        <time>2022-05-21T07:25:25.000Z</time>
      </trkpt>
      <trkpt lat="42.85742" lon="1.18084">
        <ele>885.3</ele>
        <time>2022-05-21T07:25:29.000Z</time>
      </trkpt>
      <trkpt lat="42.85754" lon="1.18079">
        <ele>885.1</ele>
        <time>2022-05-21T07:25:33.000Z</time>
      </trkpt>
      <trkpt lat="42.85765" lon="1.18079">
        <ele>885.6</ele>
        <time>2022-05-21T07:25:37.000Z</time>
      </trkpt>
      <trkpt lat="42.85775" lon="1.18077">
        <ele>886</ele>
        <time>2022-05-21T07:25:41.000Z</time>
      </trkpt>
      <trkpt lat="42.85786" lon="1.18072">
        <ele>886.4</ele>
        <time>2022-05-21T07:25:45.000Z</time>
      </trkpt>
      <trkpt lat="42.85796" lon="1.18066">
        <ele>886.4</ele>
        <time>2022-05-21T07:25:47.000Z</time>
      </trkpt>
      <trkpt lat="42.85805" lon="1.18061">
        <ele>886.8</ele>
        <time>2022-05-21T07:25:49.000Z</time>
      </trkpt>
      <trkpt lat="42.85815" lon="1.18055">
        <ele>886.8</ele>
        <time>2022-05-21T07:25:52.000Z</time>
      </trkpt>
      <trkpt lat="42.85823" lon="1.18049">
        <ele>887.5</ele>
        <time>2022-05-21T07:25:55.000Z</time>
      </trkpt>
      <trkpt lat="42.85831" lon="1.18044">
        <ele>887.7</ele>
        <time>2022-05-21T07:25:58.000Z</time>
      </trkpt>
      <trkpt lat="42.85842" lon="1.18045">
        <ele>888.2</ele>
        <time>2022-05-21T07:26:01.000Z</time>
      </trkpt>
      <trkpt lat="42.85851" lon="1.18051">
        <ele>888.5</ele>
        <time>2022-05-21T07:26:04.000Z</time>
      </trkpt>
      <trkpt lat="42.8586" lon="1.18063">
        <ele>889</ele>
        <time>2022-05-21T07:26:07.000Z</time>
      </trkpt>
      <trkpt lat="42.85865" lon="1.18074">
        <ele>889</ele>
        <time>2022-05-21T07:26:09.000Z</time>
      </trkpt>
      <trkpt lat="42.85875" lon="1.18082">
        <ele>888.9</ele>
        <time>2022-05-21T07:26:11.000Z</time>
      </trkpt>
      <trkpt lat="42.85884" lon="1.18091">
        <ele>888.7</ele>
        <time>2022-05-21T07:26:13.000Z</time>
      </trkpt>
      <trkpt lat="42.85891" lon="1.18099">
        <ele>889.2</ele>
        <time>2022-05-21T07:26:15.000Z</time>
      </trkpt>
      <trkpt lat="42.85899" lon="1.18106">
        <ele>888.6</ele>
        <time>2022-05-21T07:26:17.000Z</time>
      </trkpt>
      <trkpt lat="42.85909" lon="1.18112">
        <ele>888.8</ele>
        <time>2022-05-21T07:26:19.000Z</time>
      </trkpt>
      <trkpt lat="42.85919" lon="1.1812">
        <ele>889</ele>
        <time>2022-05-21T07:26:22.000Z</time>
      </trkpt>
      <trkpt lat="42.85933" lon="1.18125">
        <ele>889.3</ele>
        <time>2022-05-21T07:26:25.000Z</time>
      </trkpt>
      <trkpt lat="42.85944" lon="1.18127">
        <ele>889.2</ele>
        <time>2022-05-21T07:26:27.000Z</time>
      </trkpt>
      <trkpt lat="42.85958" lon="1.18129">
        <ele>889.1</ele>
        <time>2022-05-21T07:26:29.000Z</time>
      </trkpt>
      <trkpt lat="42.85972" lon="1.1813">
        <ele>889.4</ele>
        <time>2022-05-21T07:26:31.000Z</time>
      </trkpt>
      <trkpt lat="42.85983" lon="1.18131">
        <ele>888.6</ele>
        <time>2022-05-21T07:26:33.000Z</time>
      </trkpt>
      <trkpt lat="42.85994" lon="1.18132">
        <ele>888.5</ele>
        <time>2022-05-21T07:26:35.000Z</time>
      </trkpt>
      <trkpt lat="42.86005" lon="1.18132">
        <ele>888.8</ele>
        <time>2022-05-21T07:26:37.000Z</time>
      </trkpt>
      <trkpt lat="42.86017" lon="1.18133">
        <ele>888.9</ele>
        <time>2022-05-21T07:26:39.000Z</time>
      </trkpt>
      <trkpt lat="42.86031" lon="1.18136">
        <ele>888.3</ele>
        <time>2022-05-21T07:26:42.000Z</time>
      </trkpt>
      <trkpt lat="42.86044" lon="1.18138">
        <ele>888.2</ele>
        <time>2022-05-21T07:26:44.000Z</time>
      </trkpt>
      <trkpt lat="42.86053" lon="1.18142">
        <ele>888.3</ele>
        <time>2022-05-21T07:26:46.000Z</time>
      </trkpt>
      <trkpt lat="42.86062" lon="1.18148">
        <ele>887.8</ele>
        <time>2022-05-21T07:26:49.000Z</time>
      </trkpt>
      <trkpt lat="42.86074" lon="1.18158">
        <ele>887.7</ele>
        <time>2022-05-21T07:26:52.000Z</time>
      </trkpt>
      <trkpt lat="42.86083" lon="1.18169">
        <ele>887.6</ele>
        <time>2022-05-21T07:26:54.000Z</time>
      </trkpt>
      <trkpt lat="42.8609" lon="1.18178">
        <ele>887</ele>
        <time>2022-05-21T07:26:56.000Z</time>
      </trkpt>
      <trkpt lat="42.86098" lon="1.18187">
        <ele>887</ele>
        <time>2022-05-21T07:26:58.000Z</time>
      </trkpt>
      <trkpt lat="42.86105" lon="1.18195">
        <ele>887.2</ele>
        <time>2022-05-21T07:27:00.000Z</time>
      </trkpt>
      <trkpt lat="42.86111" lon="1.18205">
        <ele>887.2</ele>
        <time>2022-05-21T07:27:02.000Z</time>
      </trkpt>
      <trkpt lat="42.86119" lon="1.18218">
        <ele>887.2</ele>
        <time>2022-05-21T07:27:05.000Z</time>
      </trkpt>
      <trkpt lat="42.86126" lon="1.18232">
        <ele>887.6</ele>
        <time>2022-05-21T07:27:08.000Z</time>
      </trkpt>
      <trkpt lat="42.86133" lon="1.18241">
        <ele>887.5</ele>
        <time>2022-05-21T07:27:10.000Z</time>
      </trkpt>
      <trkpt lat="42.86139" lon="1.18251">
        <ele>887.6</ele>
        <time>2022-05-21T07:27:12.000Z</time>
      </trkpt>
      <trkpt lat="42.86146" lon="1.18265">
        <ele>887.9</ele>
        <time>2022-05-21T07:27:15.000Z</time>
      </trkpt>
      <trkpt lat="42.86153" lon="1.18279">
        <ele>887.9</ele>
        <time>2022-05-21T07:27:18.000Z</time>
      </trkpt>
      <trkpt lat="42.86158" lon="1.18289">
        <ele>888.3</ele>
        <time>2022-05-21T07:27:20.000Z</time>
      </trkpt>
      <trkpt lat="42.86165" lon="1.18303">
        <ele>888.5</ele>
        <time>2022-05-21T07:27:23.000Z</time>
      </trkpt>
      <trkpt lat="42.8617" lon="1.18317">
        <ele>888.8</ele>
        <time>2022-05-21T07:27:26.000Z</time>
      </trkpt>
      <trkpt lat="42.86171" lon="1.18333">
        <ele>889.1</ele>
        <time>2022-05-21T07:27:29.000Z</time>
      </trkpt>
      <trkpt lat="42.86169" lon="1.18348">
        <ele>889.2</ele>
        <time>2022-05-21T07:27:32.000Z</time>
      </trkpt>
      <trkpt lat="42.86168" lon="1.18364">
        <ele>889.3</ele>
        <time>2022-05-21T07:27:36.000Z</time>
      </trkpt>
      <trkpt lat="42.8617" lon="1.18378">
        <ele>888.7</ele>
        <time>2022-05-21T07:27:39.000Z</time>
      </trkpt>
      <trkpt lat="42.8617" lon="1.18395">
        <ele>888.6</ele>
        <time>2022-05-21T07:27:42.000Z</time>
      </trkpt>
      <trkpt lat="42.86172" lon="1.1841">
        <ele>888.4</ele>
        <time>2022-05-21T07:27:45.000Z</time>
      </trkpt>
      <trkpt lat="42.86171" lon="1.18427">
        <ele>888.3</ele>
        <time>2022-05-21T07:27:48.000Z</time>
      </trkpt>
      <trkpt lat="42.8617" lon="1.18445">
        <ele>887.7</ele>
        <time>2022-05-21T07:27:51.000Z</time>
      </trkpt>
      <trkpt lat="42.86168" lon="1.18457">
        <ele>887.7</ele>
        <time>2022-05-21T07:27:53.000Z</time>
      </trkpt>
      <trkpt lat="42.86167" lon="1.18471">
        <ele>887.3</ele>
        <time>2022-05-21T07:27:55.000Z</time>
      </trkpt>
      <trkpt lat="42.86165" lon="1.18483">
        <ele>887.3</ele>
        <time>2022-05-21T07:27:57.000Z</time>
      </trkpt>
      <trkpt lat="42.86159" lon="1.185">
        <ele>886.9</ele>
        <time>2022-05-21T07:28:00.000Z</time>
      </trkpt>
      <trkpt lat="42.86154" lon="1.18513">
        <ele>886.7</ele>
        <time>2022-05-21T07:28:02.000Z</time>
      </trkpt>
      <trkpt lat="42.86151" lon="1.18528">
        <ele>885.8</ele>
        <time>2022-05-21T07:28:04.000Z</time>
      </trkpt>
      <trkpt lat="42.8615" lon="1.18543">
        <ele>885.9</ele>
        <time>2022-05-21T07:28:06.000Z</time>
      </trkpt>
      <trkpt lat="42.8615" lon="1.1856">
        <ele>885.6</ele>
        <time>2022-05-21T07:28:08.000Z</time>
      </trkpt>
      <trkpt lat="42.86148" lon="1.18575">
        <ele>884.7</ele>
        <time>2022-05-21T07:28:10.000Z</time>
      </trkpt>
      <trkpt lat="42.86143" lon="1.18587">
        <ele>884.4</ele>
        <time>2022-05-21T07:28:12.000Z</time>
      </trkpt>
      <trkpt lat="42.86138" lon="1.186">
        <ele>883.7</ele>
        <time>2022-05-21T07:28:14.000Z</time>
      </trkpt>
      <trkpt lat="42.86132" lon="1.18613">
        <ele>883.3</ele>
        <time>2022-05-21T07:28:16.000Z</time>
      </trkpt>
      <trkpt lat="42.86126" lon="1.18625">
        <ele>882.3</ele>
        <time>2022-05-21T07:28:18.000Z</time>
      </trkpt>
      <trkpt lat="42.86118" lon="1.18633">
        <ele>881.7</ele>
        <time>2022-05-21T07:28:20.000Z</time>
      </trkpt>
      <trkpt lat="42.8611" lon="1.18642">
        <ele>880.9</ele>
        <time>2022-05-21T07:28:22.000Z</time>
      </trkpt>
      <trkpt lat="42.86104" lon="1.18653">
        <ele>879.9</ele>
        <time>2022-05-21T07:28:24.000Z</time>
      </trkpt>
      <trkpt lat="42.86099" lon="1.18668">
        <ele>879</ele>
        <time>2022-05-21T07:28:26.000Z</time>
      </trkpt>
      <trkpt lat="42.86094" lon="1.18683">
        <ele>878</ele>
        <time>2022-05-21T07:28:28.000Z</time>
      </trkpt>
      <trkpt lat="42.86089" lon="1.18699">
        <ele>876.6</ele>
        <time>2022-05-21T07:28:30.000Z</time>
      </trkpt>
      <trkpt lat="42.86086" lon="1.18711">
        <ele>875</ele>
        <time>2022-05-21T07:28:32.000Z</time>
      </trkpt>
      <trkpt lat="42.86082" lon="1.18726">
        <ele>872</ele>
        <time>2022-05-21T07:28:36.000Z</time>
      </trkpt>
      <trkpt lat="42.86074" lon="1.18736">
        <ele>869</ele>
        <time>2022-05-21T07:28:40.000Z</time>
      </trkpt>
      <trkpt lat="42.86067" lon="1.18746">
        <ele>867.1</ele>
        <time>2022-05-21T07:28:43.000Z</time>
      </trkpt>
      <trkpt lat="42.8606" lon="1.18757">
        <ele>865.1</ele>
        <time>2022-05-21T07:28:46.000Z</time>
      </trkpt>
      <trkpt lat="42.86052" lon="1.18766">
        <ele>863.6</ele>
        <time>2022-05-21T07:28:48.000Z</time>
      </trkpt>
      <trkpt lat="42.86042" lon="1.18776">
        <ele>861.7</ele>
        <time>2022-05-21T07:28:50.000Z</time>
      </trkpt>
      <trkpt lat="42.86033" lon="1.18782">
        <ele>860.7</ele>
        <time>2022-05-21T07:28:52.000Z</time>
      </trkpt>
      <trkpt lat="42.86036" lon="1.18787">
        <ele>855.3</ele>
        <time>2022-05-21T07:29:01.000Z</time>
      </trkpt>
      <trkpt lat="42.86037" lon="1.18787">
        <ele>848.3</ele>
        <time>2022-05-21T07:29:16.000Z</time>
      </trkpt>
      <trkpt lat="42.86038" lon="1.18787">
        <ele>845.9</ele>
        <time>2022-05-21T07:29:22.000Z</time>
      </trkpt>
      <trkpt lat="42.86047" lon="1.18788">
        <ele>844.2</ele>
        <time>2022-05-21T07:29:27.000Z</time>
      </trkpt>
      <trkpt lat="42.86057" lon="1.18786">
        <ele>842.2</ele>
        <time>2022-05-21T07:29:32.000Z</time>
      </trkpt>
      <trkpt lat="42.86052" lon="1.18797">
        <ele>838.8</ele>
        <time>2022-05-21T07:29:41.000Z</time>
      </trkpt>
      <trkpt lat="42.86044" lon="1.18805">
        <ele>836</ele>
        <time>2022-05-21T07:29:47.000Z</time>
      </trkpt>
      <trkpt lat="42.86046" lon="1.18811">
        <ele>833.8</ele>
        <time>2022-05-21T07:29:55.000Z</time>
      </trkpt>
      <trkpt lat="42.86047" lon="1.18811">
        <ele>833.2</ele>
        <time>2022-05-21T07:29:56.000Z</time>
      </trkpt>
      <trkpt lat="42.86046" lon="1.18811">
        <ele>831.9</ele>
        <time>2022-05-21T07:29:59.000Z</time>
      </trkpt>
      <trkpt lat="42.86056" lon="1.18809">
        <ele>829.1</ele>
        <time>2022-05-21T07:30:08.000Z</time>
      </trkpt>
      <trkpt lat="42.86065" lon="1.18803">
        <ele>828.4</ele>
        <time>2022-05-21T07:30:11.000Z</time>
      </trkpt>
      <trkpt lat="42.86075" lon="1.18798">
        <ele>827.4</ele>
        <time>2022-05-21T07:30:14.000Z</time>
      </trkpt>
      <trkpt lat="42.86086" lon="1.18794">
        <ele>827.1</ele>
        <time>2022-05-21T07:30:17.000Z</time>
      </trkpt>
      <trkpt lat="42.86095" lon="1.18788">
        <ele>826.3</ele>
        <time>2022-05-21T07:30:20.000Z</time>
      </trkpt>
      <trkpt lat="42.86104" lon="1.18782">
        <ele>825.5</ele>
        <time>2022-05-21T07:30:24.000Z</time>
      </trkpt>
      <trkpt lat="42.86114" lon="1.18777">
        <ele>824.9</ele>
        <time>2022-05-21T07:30:28.000Z</time>
      </trkpt>
      <trkpt lat="42.86115" lon="1.18777">
        <ele>824.6</ele>
        <time>2022-05-21T07:30:32.000Z</time>
      </trkpt>
      <trkpt lat="42.86123" lon="1.18772">
        <ele>822.3</ele>
        <time>2022-05-21T07:30:42.000Z</time>
      </trkpt>
      <trkpt lat="42.86124" lon="1.18766">
        <ele>820.5</ele>
        <time>2022-05-21T07:30:52.000Z</time>
      </trkpt>
      <trkpt lat="42.86123" lon="1.18767">
        <ele>820.3</ele>
        <time>2022-05-21T07:30:53.000Z</time>
      </trkpt>
      <trkpt lat="42.86123" lon="1.18766">
        <ele>820.1</ele>
        <time>2022-05-21T07:30:54.000Z</time>
      </trkpt>
      <trkpt lat="42.86122" lon="1.18766">
        <ele>818.1</ele>
        <time>2022-05-21T07:31:04.000Z</time>
      </trkpt>
      <trkpt lat="42.86121" lon="1.18765">
        <ele>814.1</ele>
        <time>2022-05-21T07:31:33.000Z</time>
      </trkpt>
      <trkpt lat="42.8612" lon="1.18766">
        <ele>813.4</ele>
        <time>2022-05-21T07:31:36.000Z</time>
      </trkpt>
      <trkpt lat="42.86121" lon="1.18766">
        <ele>812.6</ele>
        <time>2022-05-21T07:31:42.000Z</time>
      </trkpt>
      <trkpt lat="42.86122" lon="1.18764">
        <ele>812</ele>
        <time>2022-05-21T07:31:46.000Z</time>
      </trkpt>
      <trkpt lat="42.86123" lon="1.18763">
        <ele>811.5</ele>
        <time>2022-05-21T07:31:56.000Z</time>
      </trkpt>
      <trkpt lat="42.86124" lon="1.18761">
        <ele>811.3</ele>
        <time>2022-05-21T07:31:59.000Z</time>
      </trkpt>
      <trkpt lat="42.86125" lon="1.18761">
        <ele>811.2</ele>
        <time>2022-05-21T07:32:06.000Z</time>
      </trkpt>
      <trkpt lat="42.86132" lon="1.18751">
        <ele>810.8</ele>
        <time>2022-05-21T07:32:16.000Z</time>
      </trkpt>
      <trkpt lat="42.86141" lon="1.18749">
        <ele>810.3</ele>
        <time>2022-05-21T07:32:20.000Z</time>
      </trkpt>
      <trkpt lat="42.8615" lon="1.18752">
        <ele>809.9</ele>
        <time>2022-05-21T07:32:23.000Z</time>
      </trkpt>
      <trkpt lat="42.86159" lon="1.18756">
        <ele>809.7</ele>
        <time>2022-05-21T07:32:27.000Z</time>
      </trkpt>
      <trkpt lat="42.86163" lon="1.18759">
        <ele>809.3</ele>
        <time>2022-05-21T07:32:32.000Z</time>
      </trkpt>
      <trkpt lat="42.86163" lon="1.1876">
        <ele>809</ele>
        <time>2022-05-21T07:32:33.000Z</time>
      </trkpt>
      <trkpt lat="42.86162" lon="1.18759">
        <ele>808.7</ele>
        <time>2022-05-21T07:32:38.000Z</time>
      </trkpt>
      <trkpt lat="42.86161" lon="1.18759">
        <ele>806.5</ele>
        <time>2022-05-21T07:32:56.000Z</time>
      </trkpt>
      <trkpt lat="42.86151" lon="1.18762">
        <ele>805.4</ele>
        <time>2022-05-21T07:33:01.000Z</time>
      </trkpt>
      <trkpt lat="42.86148" lon="1.18774">
        <ele>804.3</ele>
        <time>2022-05-21T07:33:05.000Z</time>
      </trkpt>
      <trkpt lat="42.86145" lon="1.18787">
        <ele>803.7</ele>
        <time>2022-05-21T07:33:10.000Z</time>
      </trkpt>
      <trkpt lat="42.86152" lon="1.1878">
        <ele>801.1</ele>
        <time>2022-05-21T07:33:26.000Z</time>
      </trkpt>
      <trkpt lat="42.86163" lon="1.18777">
        <ele>799.5</ele>
        <time>2022-05-21T07:33:30.000Z</time>
      </trkpt>
      <trkpt lat="42.86173" lon="1.1878">
        <ele>798.6</ele>
        <time>2022-05-21T07:33:33.000Z</time>
      </trkpt>
      <trkpt lat="42.86182" lon="1.18778">
        <ele>797.4</ele>
        <time>2022-05-21T07:33:37.000Z</time>
      </trkpt>
      <trkpt lat="42.8619" lon="1.18772">
        <ele>796.8</ele>
        <time>2022-05-21T07:33:40.000Z</time>
      </trkpt>
      <trkpt lat="42.862" lon="1.18765">
        <ele>795.6</ele>
        <time>2022-05-21T07:33:44.000Z</time>
      </trkpt>
      <trkpt lat="42.8621" lon="1.18756">
        <ele>794.7</ele>
        <time>2022-05-21T07:33:48.000Z</time>
      </trkpt>
      <trkpt lat="42.86218" lon="1.18745">
        <ele>793.4</ele>
        <time>2022-05-21T07:33:51.000Z</time>
      </trkpt>
      <trkpt lat="42.86225" lon="1.18736">
        <ele>792.6</ele>
        <time>2022-05-21T07:33:53.000Z</time>
      </trkpt>
      <trkpt lat="42.86234" lon="1.18727">
        <ele>792.4</ele>
        <time>2022-05-21T07:33:55.000Z</time>
      </trkpt>
      <trkpt lat="42.86243" lon="1.18717">
        <ele>791.6</ele>
        <time>2022-05-21T07:33:57.000Z</time>
      </trkpt>
      <trkpt lat="42.8625" lon="1.18708">
        <ele>790.5</ele>
        <time>2022-05-21T07:33:59.000Z</time>
      </trkpt>
      <trkpt lat="42.86259" lon="1.18696">
        <ele>789.3</ele>
        <time>2022-05-21T07:34:03.000Z</time>
      </trkpt>
      <trkpt lat="42.86266" lon="1.18687">
        <ele>787.9</ele>
        <time>2022-05-21T07:34:08.000Z</time>
      </trkpt>
      <trkpt lat="42.86266" lon="1.18696">
        <ele>783.7</ele>
        <time>2022-05-21T07:34:23.000Z</time>
      </trkpt>
      <trkpt lat="42.86265" lon="1.18696">
        <ele>782.1</ele>
        <time>2022-05-21T07:34:30.000Z</time>
      </trkpt>
      <trkpt lat="42.86262" lon="1.18709">
        <ele>780.1</ele>
        <time>2022-05-21T07:34:37.000Z</time>
      </trkpt>
      <trkpt lat="42.86259" lon="1.18724">
        <ele>778.5</ele>
        <time>2022-05-21T07:34:42.000Z</time>
      </trkpt>
      <trkpt lat="42.86255" lon="1.18735">
        <ele>777.6</ele>
        <time>2022-05-21T07:34:46.000Z</time>
      </trkpt>
      <trkpt lat="42.8625" lon="1.18748">
        <ele>775.9</ele>
        <time>2022-05-21T07:34:50.000Z</time>
      </trkpt>
      <trkpt lat="42.86244" lon="1.18761">
        <ele>774.6</ele>
        <time>2022-05-21T07:34:54.000Z</time>
      </trkpt>
      <trkpt lat="42.86242" lon="1.18773">
        <ele>772.8</ele>
        <time>2022-05-21T07:34:59.000Z</time>
      </trkpt>
      <trkpt lat="42.86237" lon="1.18787">
        <ele>772.1</ele>
        <time>2022-05-21T07:35:03.000Z</time>
      </trkpt>
      <trkpt lat="42.86231" lon="1.18799">
        <ele>771.2</ele>
        <time>2022-05-21T07:35:06.000Z</time>
      </trkpt>
      <trkpt lat="42.86225" lon="1.18814">
        <ele>769.9</ele>
        <time>2022-05-21T07:35:09.000Z</time>
      </trkpt>
      <trkpt lat="42.86219" lon="1.18826">
        <ele>769.1</ele>
        <time>2022-05-21T07:35:13.000Z</time>
      </trkpt>
      <trkpt lat="42.86228" lon="1.18818">
        <ele>765.4</ele>
        <time>2022-05-21T07:35:23.000Z</time>
      </trkpt>
      <trkpt lat="42.86235" lon="1.18805">
        <ele>764.6</ele>
        <time>2022-05-21T07:35:26.000Z</time>
      </trkpt>
      <trkpt lat="42.86241" lon="1.18794">
        <ele>763</ele>
        <time>2022-05-21T07:35:29.000Z</time>
      </trkpt>
      <trkpt lat="42.8625" lon="1.18783">
        <ele>762.1</ele>
        <time>2022-05-21T07:35:33.000Z</time>
      </trkpt>
      <trkpt lat="42.86261" lon="1.18772">
        <ele>760.9</ele>
        <time>2022-05-21T07:35:36.000Z</time>
      </trkpt>
      <trkpt lat="42.86272" lon="1.18764">
        <ele>759.2</ele>
        <time>2022-05-21T07:35:39.000Z</time>
      </trkpt>
      <trkpt lat="42.8628" lon="1.18756">
        <ele>758.2</ele>
        <time>2022-05-21T07:35:41.000Z</time>
      </trkpt>
      <trkpt lat="42.86288" lon="1.18747">
        <ele>757.4</ele>
        <time>2022-05-21T07:35:43.000Z</time>
      </trkpt>
      <trkpt lat="42.86297" lon="1.18733">
        <ele>756.8</ele>
        <time>2022-05-21T07:35:46.000Z</time>
      </trkpt>
      <trkpt lat="42.86303" lon="1.18723">
        <ele>756.3</ele>
        <time>2022-05-21T07:35:48.000Z</time>
      </trkpt>
      <trkpt lat="42.8631" lon="1.18709">
        <ele>754.3</ele>
        <time>2022-05-21T07:35:51.000Z</time>
      </trkpt>
      <trkpt lat="42.86316" lon="1.18697">
        <ele>754</ele>
        <time>2022-05-21T07:35:53.000Z</time>
      </trkpt>
      <trkpt lat="42.86323" lon="1.18681">
        <ele>752.6</ele>
        <time>2022-05-21T07:35:55.000Z</time>
      </trkpt>
      <trkpt lat="42.86334" lon="1.18665">
        <ele>751.6</ele>
        <time>2022-05-21T07:35:57.000Z</time>
      </trkpt>
      <trkpt lat="42.86339" lon="1.18651">
        <ele>750.2</ele>
        <time>2022-05-21T07:36:00.000Z</time>
      </trkpt>
      <trkpt lat="42.86347" lon="1.18643">
        <ele>749</ele>
        <time>2022-05-21T07:36:03.000Z</time>
      </trkpt>
      <trkpt lat="42.86353" lon="1.18626">
        <ele>747.3</ele>
        <time>2022-05-21T07:36:06.000Z</time>
      </trkpt>
      <trkpt lat="42.86359" lon="1.18609">
        <ele>745.3</ele>
        <time>2022-05-21T07:36:09.000Z</time>
      </trkpt>
      <trkpt lat="42.86365" lon="1.18595">
        <ele>744.2</ele>
        <time>2022-05-21T07:36:11.000Z</time>
      </trkpt>
      <trkpt lat="42.86368" lon="1.18583">
        <ele>743.5</ele>
        <time>2022-05-21T07:36:13.000Z</time>
      </trkpt>
      <trkpt lat="42.86373" lon="1.1857">
        <ele>742.8</ele>
        <time>2022-05-21T07:36:15.000Z</time>
      </trkpt>
      <trkpt lat="42.86377" lon="1.18558">
        <ele>742.2</ele>
        <time>2022-05-21T07:36:17.000Z</time>
      </trkpt>
      <trkpt lat="42.86385" lon="1.18547">
        <ele>740.5</ele>
        <time>2022-05-21T07:36:19.000Z</time>
      </trkpt>
      <trkpt lat="42.86389" lon="1.18534">
        <ele>739.8</ele>
        <time>2022-05-21T07:36:21.000Z</time>
      </trkpt>
      <trkpt lat="42.86394" lon="1.1852">
        <ele>738.7</ele>
        <time>2022-05-21T07:36:23.000Z</time>
      </trkpt>
      <trkpt lat="42.86401" lon="1.1851">
        <ele>737.9</ele>
        <time>2022-05-21T07:36:25.000Z</time>
      </trkpt>
      <trkpt lat="42.86405" lon="1.18497">
        <ele>736.5</ele>
        <time>2022-05-21T07:36:27.000Z</time>
      </trkpt>
      <trkpt lat="42.86408" lon="1.1848">
        <ele>735</ele>
        <time>2022-05-21T07:36:29.000Z</time>
      </trkpt>
      <trkpt lat="42.86413" lon="1.18462">
        <ele>733.7</ele>
        <time>2022-05-21T07:36:31.000Z</time>
      </trkpt>
      <trkpt lat="42.86414" lon="1.18448">
        <ele>732.1</ele>
        <time>2022-05-21T07:36:33.000Z</time>
      </trkpt>
      <trkpt lat="42.86417" lon="1.18436">
        <ele>731.4</ele>
        <time>2022-05-21T07:36:35.000Z</time>
      </trkpt>
      <trkpt lat="42.86421" lon="1.18421">
        <ele>730.3</ele>
        <time>2022-05-21T07:36:38.000Z</time>
      </trkpt>
      <trkpt lat="42.8642" lon="1.18407">
        <ele>728.3</ele>
        <time>2022-05-21T07:36:41.000Z</time>
      </trkpt>
      <trkpt lat="42.86419" lon="1.18395">
        <ele>726.7</ele>
        <time>2022-05-21T07:36:44.000Z</time>
      </trkpt>
      <trkpt lat="42.86414" lon="1.18381">
        <ele>724.6</ele>
        <time>2022-05-21T07:36:48.000Z</time>
      </trkpt>
      <trkpt lat="42.86417" lon="1.18375">
        <ele>722.3</ele>
        <time>2022-05-21T07:36:52.000Z</time>
      </trkpt>
      <trkpt lat="42.86416" lon="1.18375">
        <ele>716.9</ele>
        <time>2022-05-21T07:37:03.000Z</time>
      </trkpt>
      <trkpt lat="42.86416" lon="1.18371">
        <ele>714.4</ele>
        <time>2022-05-21T07:37:08.000Z</time>
      </trkpt>
      <trkpt lat="42.86415" lon="1.18371">
        <ele>711.9</ele>
        <time>2022-05-21T07:37:14.000Z</time>
      </trkpt>
      <trkpt lat="42.86414" lon="1.18371">
        <ele>711.6</ele>
        <time>2022-05-21T07:37:17.000Z</time>
      </trkpt>
      <trkpt lat="42.86414" lon="1.1837">
        <ele>710.6</ele>
        <time>2022-05-21T07:37:19.000Z</time>
      </trkpt>
      <trkpt lat="42.86414" lon="1.18369">
        <ele>708.2</ele>
        <time>2022-05-21T07:37:25.000Z</time>
      </trkpt>
      <trkpt lat="42.86415" lon="1.18369">
        <ele>707.4</ele>
        <time>2022-05-21T07:37:28.000Z</time>
      </trkpt>
      <trkpt lat="42.86414" lon="1.18368">
        <ele>707.1</ele>
        <time>2022-05-21T07:37:30.000Z</time>
      </trkpt>
      <trkpt lat="42.86415" lon="1.18368">
        <ele>706.3</ele>
        <time>2022-05-21T07:37:32.000Z</time>
      </trkpt>
      <trkpt lat="42.86415" lon="1.18365">
        <ele>704.8</ele>
        <time>2022-05-21T07:37:38.000Z</time>
      </trkpt>
      <trkpt lat="42.86415" lon="1.18364">
        <ele>698.2</ele>
        <time>2022-05-21T07:38:03.000Z</time>
      </trkpt>
      <trkpt lat="42.86416" lon="1.18365">
        <ele>698.2</ele>
        <time>2022-05-21T07:38:06.000Z</time>
      </trkpt>
      <trkpt lat="42.86416" lon="1.18361">
        <ele>696.5</ele>
        <time>2022-05-21T07:38:19.000Z</time>
      </trkpt>
      <trkpt lat="42.86416" lon="1.1836">
        <ele>695.5</ele>
        <time>2022-05-21T07:38:32.000Z</time>
      </trkpt>
      <trkpt lat="42.86416" lon="1.18346">
        <ele>694.8</ele>
        <time>2022-05-21T07:38:38.000Z</time>
      </trkpt>
      <trkpt lat="42.86415" lon="1.18332">
        <ele>694.4</ele>
        <time>2022-05-21T07:38:42.000Z</time>
      </trkpt>
      <trkpt lat="42.86416" lon="1.18313">
        <ele>693.8</ele>
        <time>2022-05-21T07:38:45.000Z</time>
      </trkpt>
      <trkpt lat="42.86417" lon="1.183">
        <ele>692.7</ele>
        <time>2022-05-21T07:38:47.000Z</time>
      </trkpt>
      <trkpt lat="42.86415" lon="1.18285">
        <ele>692.8</ele>
        <time>2022-05-21T07:38:50.000Z</time>
      </trkpt>
      <trkpt lat="42.86412" lon="1.18268">
        <ele>691.5</ele>
        <time>2022-05-21T07:38:53.000Z</time>
      </trkpt>
      <trkpt lat="42.86413" lon="1.18255">
        <ele>691</ele>
        <time>2022-05-21T07:38:56.000Z</time>
      </trkpt>
      <trkpt lat="42.8641" lon="1.18242">
        <ele>690.6</ele>
        <time>2022-05-21T07:38:59.000Z</time>
      </trkpt>
      <trkpt lat="42.86408" lon="1.18226">
        <ele>689.8</ele>
        <time>2022-05-21T07:39:02.000Z</time>
      </trkpt>
      <trkpt lat="42.86408" lon="1.18214">
        <ele>688.3</ele>
        <time>2022-05-21T07:39:11.000Z</time>
      </trkpt>
      <trkpt lat="42.86408" lon="1.182">
        <ele>687.1</ele>
        <time>2022-05-21T07:39:16.000Z</time>
      </trkpt>
      <trkpt lat="42.86408" lon="1.18186">
        <ele>686.6</ele>
        <time>2022-05-21T07:39:20.000Z</time>
      </trkpt>
      <trkpt lat="42.86409" lon="1.18173">
        <ele>686.1</ele>
        <time>2022-05-21T07:39:22.000Z</time>
      </trkpt>
      <trkpt lat="42.86409" lon="1.1816">
        <ele>685</ele>
        <time>2022-05-21T07:39:24.000Z</time>
      </trkpt>
      <trkpt lat="42.8641" lon="1.18147">
        <ele>683.7</ele>
        <time>2022-05-21T07:39:27.000Z</time>
      </trkpt>
      <trkpt lat="42.8641" lon="1.18135">
        <ele>681.9</ele>
        <time>2022-05-21T07:39:36.000Z</time>
      </trkpt>
      <trkpt lat="42.86408" lon="1.18134">
        <ele>680.7</ele>
        <time>2022-05-21T07:39:44.000Z</time>
      </trkpt>
      <trkpt lat="42.86408" lon="1.18135">
        <ele>678.9</ele>
        <time>2022-05-21T07:39:51.000Z</time>
      </trkpt>
      <trkpt lat="42.86408" lon="1.18136">
        <ele>677.2</ele>
        <time>2022-05-21T07:39:54.000Z</time>
      </trkpt>
      <trkpt lat="42.86407" lon="1.18137">
        <ele>675.5</ele>
        <time>2022-05-21T07:40:03.000Z</time>
      </trkpt>
      <trkpt lat="42.86408" lon="1.18137">
        <ele>674.1</ele>
        <time>2022-05-21T07:40:11.000Z</time>
      </trkpt>
      <trkpt lat="42.86412" lon="1.1815">
        <ele>672.5</ele>
        <time>2022-05-21T07:40:17.000Z</time>
      </trkpt>
      <trkpt lat="42.86418" lon="1.18164">
        <ele>671.8</ele>
        <time>2022-05-21T07:40:21.000Z</time>
      </trkpt>
      <trkpt lat="42.86423" lon="1.18179">
        <ele>670.4</ele>
        <time>2022-05-21T07:40:25.000Z</time>
      </trkpt>
      <trkpt lat="42.86427" lon="1.1819">
        <ele>669.8</ele>
        <time>2022-05-21T07:40:27.000Z</time>
      </trkpt>
      <trkpt lat="42.86431" lon="1.18201">
        <ele>670</ele>
        <time>2022-05-21T07:40:29.000Z</time>
      </trkpt>
      <trkpt lat="42.86438" lon="1.18217">
        <ele>669.4</ele>
        <time>2022-05-21T07:40:31.000Z</time>
      </trkpt>
      <trkpt lat="42.86446" lon="1.18233">
        <ele>668.5</ele>
        <time>2022-05-21T07:40:33.000Z</time>
      </trkpt>
      <trkpt lat="42.86455" lon="1.18247">
        <ele>668</ele>
        <time>2022-05-21T07:40:35.000Z</time>
      </trkpt>
      <trkpt lat="42.86463" lon="1.1826">
        <ele>666.8</ele>
        <time>2022-05-21T07:40:37.000Z</time>
      </trkpt>
      <trkpt lat="42.8647" lon="1.18273">
        <ele>666.1</ele>
        <time>2022-05-21T07:40:39.000Z</time>
      </trkpt>
      <trkpt lat="42.86476" lon="1.18285">
        <ele>665.6</ele>
        <time>2022-05-21T07:40:41.000Z</time>
      </trkpt>
      <trkpt lat="42.86477" lon="1.183">
        <ele>665.5</ele>
        <time>2022-05-21T07:40:43.000Z</time>
      </trkpt>
      <trkpt lat="42.86476" lon="1.18317">
        <ele>664.7</ele>
        <time>2022-05-21T07:40:45.000Z</time>
      </trkpt>
      <trkpt lat="42.86473" lon="1.18335">
        <ele>664.1</ele>
        <time>2022-05-21T07:40:47.000Z</time>
      </trkpt>
      <trkpt lat="42.86474" lon="1.18355">
        <ele>664.2</ele>
        <time>2022-05-21T07:40:49.000Z</time>
      </trkpt>
      <trkpt lat="42.86479" lon="1.18373">
        <ele>663.4</ele>
        <time>2022-05-21T07:40:51.000Z</time>
      </trkpt>
      <trkpt lat="42.86483" lon="1.18396">
        <ele>662.6</ele>
        <time>2022-05-21T07:40:53.000Z</time>
      </trkpt>
      <trkpt lat="42.86486" lon="1.1842">
        <ele>660.9</ele>
        <time>2022-05-21T07:40:55.000Z</time>
      </trkpt>
      <trkpt lat="42.86488" lon="1.18433">
        <ele>660.4</ele>
        <time>2022-05-21T07:40:56.000Z</time>
      </trkpt>
      <trkpt lat="42.86491" lon="1.18454">
        <ele>660.2</ele>
        <time>2022-05-21T07:40:58.000Z</time>
      </trkpt>
      <trkpt lat="42.86492" lon="1.18474">
        <ele>659.4</ele>
        <time>2022-05-21T07:41:00.000Z</time>
      </trkpt>
      <trkpt lat="42.86494" lon="1.18494">
        <ele>658.5</ele>
        <time>2022-05-21T07:41:02.000Z</time>
      </trkpt>
      <trkpt lat="42.86496" lon="1.18513">
        <ele>657.1</ele>
        <time>2022-05-21T07:41:04.000Z</time>
      </trkpt>
      <trkpt lat="42.86494" lon="1.18528">
        <ele>655.4</ele>
        <time>2022-05-21T07:41:07.000Z</time>
      </trkpt>
      <trkpt lat="42.86501" lon="1.18516">
        <ele>652.3</ele>
        <time>2022-05-21T07:41:14.000Z</time>
      </trkpt>
      <trkpt lat="42.86503" lon="1.185">
        <ele>651.1</ele>
        <time>2022-05-21T07:41:16.000Z</time>
      </trkpt>
      <trkpt lat="42.86505" lon="1.18485">
        <ele>649.8</ele>
        <time>2022-05-21T07:41:18.000Z</time>
      </trkpt>
      <trkpt lat="42.86507" lon="1.18469">
        <ele>648.5</ele>
        <time>2022-05-21T07:41:20.000Z</time>
      </trkpt>
      <trkpt lat="42.8651" lon="1.1845">
        <ele>647.5</ele>
        <time>2022-05-21T07:41:22.000Z</time>
      </trkpt>
      <trkpt lat="42.86511" lon="1.1843">
        <ele>646.4</ele>
        <time>2022-05-21T07:41:24.000Z</time>
      </trkpt>
      <trkpt lat="42.86514" lon="1.1841">
        <ele>645.1</ele>
        <time>2022-05-21T07:41:26.000Z</time>
      </trkpt>
      <trkpt lat="42.86513" lon="1.18395">
        <ele>643.8</ele>
        <time>2022-05-21T07:41:28.000Z</time>
      </trkpt>
      <trkpt lat="42.86514" lon="1.18382">
        <ele>642.6</ele>
        <time>2022-05-21T07:41:30.000Z</time>
      </trkpt>
      <trkpt lat="42.86516" lon="1.18369">
        <ele>640.1</ele>
        <time>2022-05-21T07:41:34.000Z</time>
      </trkpt>
      <trkpt lat="42.86519" lon="1.18356">
        <ele>637.5</ele>
        <time>2022-05-21T07:41:39.000Z</time>
      </trkpt>
      <trkpt lat="42.86522" lon="1.18343">
        <ele>634.9</ele>
        <time>2022-05-21T07:41:44.000Z</time>
      </trkpt>
      <trkpt lat="42.86525" lon="1.18358">
        <ele>631.4</ele>
        <time>2022-05-21T07:41:51.000Z</time>
      </trkpt>
      <trkpt lat="42.86527" lon="1.18372">
        <ele>629.6</ele>
        <time>2022-05-21T07:41:54.000Z</time>
      </trkpt>
      <trkpt lat="42.8653" lon="1.18385">
        <ele>627.6</ele>
        <time>2022-05-21T07:41:57.000Z</time>
      </trkpt>
      <trkpt lat="42.86536" lon="1.18396">
        <ele>625</ele>
        <time>2022-05-21T07:42:02.000Z</time>
      </trkpt>
      <trkpt lat="42.86535" lon="1.18403">
        <ele>622.5</ele>
        <time>2022-05-21T07:42:08.000Z</time>
      </trkpt>
      <trkpt lat="42.86536" lon="1.18404">
        <ele>618.9</ele>
        <time>2022-05-21T07:42:17.000Z</time>
      </trkpt>
      <trkpt lat="42.8654" lon="1.18417">
        <ele>616.2</ele>
        <time>2022-05-21T07:42:25.000Z</time>
      </trkpt>
      <trkpt lat="42.86543" lon="1.18434">
        <ele>614.4</ele>
        <time>2022-05-21T07:42:29.000Z</time>
      </trkpt>
      <trkpt lat="42.86545" lon="1.18452">
        <ele>613</ele>
        <time>2022-05-21T07:42:32.000Z</time>
      </trkpt>
      <trkpt lat="42.86547" lon="1.18465">
        <ele>613.5</ele>
        <time>2022-05-21T07:42:34.000Z</time>
      </trkpt>
      <trkpt lat="42.86548" lon="1.18483">
        <ele>613.1</ele>
        <time>2022-05-21T07:42:36.000Z</time>
      </trkpt>
      <trkpt lat="42.86551" lon="1.18502">
        <ele>611.7</ele>
        <time>2022-05-21T07:42:38.000Z</time>
      </trkpt>
      <trkpt lat="42.86554" lon="1.18524">
        <ele>610.3</ele>
        <time>2022-05-21T07:42:40.000Z</time>
      </trkpt>
      <trkpt lat="42.86554" lon="1.18542">
        <ele>609.1</ele>
        <time>2022-05-21T07:42:42.000Z</time>
      </trkpt>
      <trkpt lat="42.86553" lon="1.18561">
        <ele>608.2</ele>
        <time>2022-05-21T07:42:44.000Z</time>
      </trkpt>
      <trkpt lat="42.86549" lon="1.18579">
        <ele>606.8</ele>
        <time>2022-05-21T07:42:46.000Z</time>
      </trkpt>
      <trkpt lat="42.86544" lon="1.18597">
        <ele>605.1</ele>
        <time>2022-05-21T07:42:48.000Z</time>
      </trkpt>
      <trkpt lat="42.86539" lon="1.18617">
        <ele>604.5</ele>
        <time>2022-05-21T07:42:50.000Z</time>
      </trkpt>
      <trkpt lat="42.86534" lon="1.18637">
        <ele>603.7</ele>
        <time>2022-05-21T07:42:52.000Z</time>
      </trkpt>
      <trkpt lat="42.86529" lon="1.18655">
        <ele>602</ele>
        <time>2022-05-21T07:42:54.000Z</time>
      </trkpt>
      <trkpt lat="42.86528" lon="1.18671">
        <ele>601.4</ele>
        <time>2022-05-21T07:42:56.000Z</time>
      </trkpt>
      <trkpt lat="42.86528" lon="1.18683">
        <ele>600</ele>
        <time>2022-05-21T07:42:58.000Z</time>
      </trkpt>
      <trkpt lat="42.86527" lon="1.18702">
        <ele>599.4</ele>
        <time>2022-05-21T07:43:01.000Z</time>
      </trkpt>
      <trkpt lat="42.86529" lon="1.18717">
        <ele>598.1</ele>
        <time>2022-05-21T07:43:03.000Z</time>
      </trkpt>
      <trkpt lat="42.86534" lon="1.18734">
        <ele>596.4</ele>
        <time>2022-05-21T07:43:05.000Z</time>
      </trkpt>
      <trkpt lat="42.8654" lon="1.18746">
        <ele>595.9</ele>
        <time>2022-05-21T07:43:07.000Z</time>
      </trkpt>
      <trkpt lat="42.86549" lon="1.18756">
        <ele>594.6</ele>
        <time>2022-05-21T07:43:09.000Z</time>
      </trkpt>
      <trkpt lat="42.86556" lon="1.18769">
        <ele>593.8</ele>
        <time>2022-05-21T07:43:11.000Z</time>
      </trkpt>
      <trkpt lat="42.86564" lon="1.18787">
        <ele>592.1</ele>
        <time>2022-05-21T07:43:13.000Z</time>
      </trkpt>
      <trkpt lat="42.86573" lon="1.18805">
        <ele>591.4</ele>
        <time>2022-05-21T07:43:15.000Z</time>
      </trkpt>
      <trkpt lat="42.86582" lon="1.18823">
        <ele>590.8</ele>
        <time>2022-05-21T07:43:17.000Z</time>
      </trkpt>
      <trkpt lat="42.8659" lon="1.18836">
        <ele>589.4</ele>
        <time>2022-05-21T07:43:19.000Z</time>
      </trkpt>
      <trkpt lat="42.866" lon="1.18834">
        <ele>587.6</ele>
        <time>2022-05-21T07:43:23.000Z</time>
      </trkpt>
      <trkpt lat="42.86608" lon="1.1883">
        <ele>585.5</ele>
        <time>2022-05-21T07:43:27.000Z</time>
      </trkpt>
      <trkpt lat="42.86617" lon="1.18825">
        <ele>584</ele>
        <time>2022-05-21T07:43:31.000Z</time>
      </trkpt>
      <trkpt lat="42.86626" lon="1.18825">
        <ele>581.9</ele>
        <time>2022-05-21T07:43:37.000Z</time>
      </trkpt>
      <trkpt lat="42.86626" lon="1.1884">
        <ele>579</ele>
        <time>2022-05-21T07:43:45.000Z</time>
      </trkpt>
      <trkpt lat="42.86626" lon="1.18855">
        <ele>577.4</ele>
        <time>2022-05-21T07:43:49.000Z</time>
      </trkpt>
      <trkpt lat="42.86625" lon="1.18869">
        <ele>576.5</ele>
        <time>2022-05-21T07:43:53.000Z</time>
      </trkpt>
      <trkpt lat="42.86623" lon="1.18883">
        <ele>576</ele>
        <time>2022-05-21T07:43:57.000Z</time>
      </trkpt>
      <trkpt lat="42.86619" lon="1.18895">
        <ele>575.3</ele>
        <time>2022-05-21T07:44:01.000Z</time>
      </trkpt>
      <trkpt lat="42.86617" lon="1.18907">
        <ele>575</ele>
        <time>2022-05-21T07:44:04.000Z</time>
      </trkpt>
      <trkpt lat="42.86617" lon="1.18921">
        <ele>574.7</ele>
        <time>2022-05-21T07:44:07.000Z</time>
      </trkpt>
      <trkpt lat="42.86618" lon="1.18934">
        <ele>574</ele>
        <time>2022-05-21T07:44:10.000Z</time>
      </trkpt>
      <trkpt lat="42.86619" lon="1.18948">
        <ele>573.4</ele>
        <time>2022-05-21T07:44:13.000Z</time>
      </trkpt>
      <trkpt lat="42.86619" lon="1.18962">
        <ele>573.6</ele>
        <time>2022-05-21T07:44:16.000Z</time>
      </trkpt>
      <trkpt lat="42.8662" lon="1.18975">
        <ele>572.9</ele>
        <time>2022-05-21T07:44:19.000Z</time>
      </trkpt>
      <trkpt lat="42.86621" lon="1.18988">
        <ele>572.4</ele>
        <time>2022-05-21T07:44:22.000Z</time>
      </trkpt>
      <trkpt lat="42.86624" lon="1.19003">
        <ele>572</ele>
        <time>2022-05-21T07:44:26.000Z</time>
      </trkpt>
      <trkpt lat="42.86628" lon="1.19015">
        <ele>571.6</ele>
        <time>2022-05-21T07:44:29.000Z</time>
      </trkpt>
      <trkpt lat="42.86631" lon="1.19027">
        <ele>571.4</ele>
        <time>2022-05-21T07:44:32.000Z</time>
      </trkpt>
      <trkpt lat="42.86635" lon="1.19039">
        <ele>570.7</ele>
        <time>2022-05-21T07:44:35.000Z</time>
      </trkpt>
      <trkpt lat="42.86639" lon="1.19052">
        <ele>570.3</ele>
        <time>2022-05-21T07:44:38.000Z</time>
      </trkpt>
      <trkpt lat="42.86642" lon="1.19066">
        <ele>569.9</ele>
        <time>2022-05-21T07:44:41.000Z</time>
      </trkpt>
      <trkpt lat="42.86645" lon="1.19079">
        <ele>569.8</ele>
        <time>2022-05-21T07:44:44.000Z</time>
      </trkpt>
      <trkpt lat="42.86648" lon="1.19093">
        <ele>569.1</ele>
        <time>2022-05-21T07:44:47.000Z</time>
      </trkpt>
      <trkpt lat="42.86652" lon="1.19106">
        <ele>568.4</ele>
        <time>2022-05-21T07:44:50.000Z</time>
      </trkpt>
      <trkpt lat="42.86655" lon="1.19119">
        <ele>568</ele>
        <time>2022-05-21T07:44:53.000Z</time>
      </trkpt>
      <trkpt lat="42.86659" lon="1.1913">
        <ele>567.5</ele>
        <time>2022-05-21T07:44:56.000Z</time>
      </trkpt>
      <trkpt lat="42.86663" lon="1.19145">
        <ele>566.9</ele>
        <time>2022-05-21T07:45:00.000Z</time>
      </trkpt>
      <trkpt lat="42.86669" lon="1.19157">
        <ele>566.2</ele>
        <time>2022-05-21T07:45:04.000Z</time>
      </trkpt>
      <trkpt lat="42.86676" lon="1.19169">
        <ele>565.7</ele>
        <time>2022-05-21T07:45:08.000Z</time>
      </trkpt>
      <trkpt lat="42.86685" lon="1.19179">
        <ele>565.3</ele>
        <time>2022-05-21T07:45:12.000Z</time>
      </trkpt>
      <trkpt lat="42.86694" lon="1.19188">
        <ele>564.6</ele>
        <time>2022-05-21T07:45:16.000Z</time>
      </trkpt>
      <trkpt lat="42.86703" lon="1.19197">
        <ele>563.2</ele>
        <time>2022-05-21T07:45:20.000Z</time>
      </trkpt>
      <trkpt lat="42.86713" lon="1.19206">
        <ele>562.8</ele>
        <time>2022-05-21T07:45:24.000Z</time>
      </trkpt>
      <trkpt lat="42.8672" lon="1.19214">
        <ele>562.7</ele>
        <time>2022-05-21T07:45:27.000Z</time>
      </trkpt>
      <trkpt lat="42.86728" lon="1.19223">
        <ele>562.2</ele>
        <time>2022-05-21T07:45:30.000Z</time>
      </trkpt>
      <trkpt lat="42.86735" lon="1.19231">
        <ele>561.7</ele>
        <time>2022-05-21T07:45:34.000Z</time>
      </trkpt>
      <trkpt lat="42.86738" lon="1.19237">
        <ele>560.4</ele>
        <time>2022-05-21T07:45:41.000Z</time>
      </trkpt>
      <trkpt lat="42.86739" lon="1.19238">
        <ele>550.7</ele>
        <time>2022-05-21T07:47:55.000Z</time>
      </trkpt>
      <trkpt lat="42.86743" lon="1.19242">
        <ele>551.2</ele>
        <time>2022-05-21T07:48:04.000Z</time>
      </trkpt>
      <trkpt lat="42.86743" lon="1.19241">
        <ele>551.7</ele>
        <time>2022-05-21T07:48:30.000Z</time>
      </trkpt>
      <trkpt lat="42.86739" lon="1.19246">
        <ele>560.2</ele>
        <time>2022-05-21T07:52:11.000Z</time>
      </trkpt>
      <trkpt lat="42.86733" lon="1.19262">
        <ele>559.5</ele>
        <time>2022-05-21T07:52:14.000Z</time>
      </trkpt>
      <trkpt lat="42.86726" lon="1.19278">
        <ele>559.5</ele>
        <time>2022-05-21T07:52:17.000Z</time>
      </trkpt>
      <trkpt lat="42.86721" lon="1.19291">
        <ele>558.7</ele>
        <time>2022-05-21T07:52:19.000Z</time>
      </trkpt>
      <trkpt lat="42.86714" lon="1.19304">
        <ele>558.9</ele>
        <time>2022-05-21T07:52:21.000Z</time>
      </trkpt>
      <trkpt lat="42.86706" lon="1.19317">
        <ele>558.9</ele>
        <time>2022-05-21T07:52:23.000Z</time>
      </trkpt>
      <trkpt lat="42.86697" lon="1.19331">
        <ele>559.2</ele>
        <time>2022-05-21T07:52:25.000Z</time>
      </trkpt>
      <trkpt lat="42.86689" lon="1.19345">
        <ele>558.8</ele>
        <time>2022-05-21T07:52:27.000Z</time>
      </trkpt>
      <trkpt lat="42.86682" lon="1.19358">
        <ele>558.9</ele>
        <time>2022-05-21T07:52:29.000Z</time>
      </trkpt>
      <trkpt lat="42.86675" lon="1.1937">
        <ele>558.9</ele>
        <time>2022-05-21T07:52:31.000Z</time>
      </trkpt>
      <trkpt lat="42.86669" lon="1.1938">
        <ele>558.8</ele>
        <time>2022-05-21T07:52:33.000Z</time>
      </trkpt>
      <trkpt lat="42.86663" lon="1.19392">
        <ele>558.7</ele>
        <time>2022-05-21T07:52:35.000Z</time>
      </trkpt>
      <trkpt lat="42.86657" lon="1.19404">
        <ele>558.7</ele>
        <time>2022-05-21T07:52:37.000Z</time>
      </trkpt>
      <trkpt lat="42.86651" lon="1.19416">
        <ele>558.7</ele>
        <time>2022-05-21T07:52:39.000Z</time>
      </trkpt>
      <trkpt lat="42.86644" lon="1.19429">
        <ele>558.6</ele>
        <time>2022-05-21T07:52:41.000Z</time>
      </trkpt>
      <trkpt lat="42.86638" lon="1.19441">
        <ele>558.6</ele>
        <time>2022-05-21T07:52:43.000Z</time>
      </trkpt>
      <trkpt lat="42.86631" lon="1.19455">
        <ele>558.8</ele>
        <time>2022-05-21T07:52:45.000Z</time>
      </trkpt>
      <trkpt lat="42.86624" lon="1.19471">
        <ele>558.3</ele>
        <time>2022-05-21T07:52:47.000Z</time>
      </trkpt>
      <trkpt lat="42.86617" lon="1.19486">
        <ele>558.4</ele>
        <time>2022-05-21T07:52:49.000Z</time>
      </trkpt>
      <trkpt lat="42.86609" lon="1.19503">
        <ele>558.4</ele>
        <time>2022-05-21T07:52:51.000Z</time>
      </trkpt>
      <trkpt lat="42.86601" lon="1.1952">
        <ele>558.1</ele>
        <time>2022-05-21T07:52:53.000Z</time>
      </trkpt>
      <trkpt lat="42.86594" lon="1.19538">
        <ele>557.9</ele>
        <time>2022-05-21T07:52:55.000Z</time>
      </trkpt>
      <trkpt lat="42.86587" lon="1.19556">
        <ele>558.3</ele>
        <time>2022-05-21T07:52:57.000Z</time>
      </trkpt>
      <trkpt lat="42.86581" lon="1.19575">
        <ele>557.9</ele>
        <time>2022-05-21T07:52:59.000Z</time>
      </trkpt>
      <trkpt lat="42.86576" lon="1.19594">
        <ele>558.1</ele>
        <time>2022-05-21T07:53:01.000Z</time>
      </trkpt>
      <trkpt lat="42.86572" lon="1.19611">
        <ele>557.9</ele>
        <time>2022-05-21T07:53:03.000Z</time>
      </trkpt>
      <trkpt lat="42.86571" lon="1.19624">
        <ele>557.8</ele>
        <time>2022-05-21T07:53:05.000Z</time>
      </trkpt>
      <trkpt lat="42.8657" lon="1.1964">
        <ele>557.8</ele>
        <time>2022-05-21T07:53:08.000Z</time>
      </trkpt>
      <trkpt lat="42.8657" lon="1.19654">
        <ele>558.3</ele>
        <time>2022-05-21T07:53:12.000Z</time>
      </trkpt>
      <trkpt lat="42.86571" lon="1.19668">
        <ele>558.2</ele>
        <time>2022-05-21T07:53:17.000Z</time>
      </trkpt>
      <trkpt lat="42.86571" lon="1.19681">
        <ele>558.2</ele>
        <time>2022-05-21T07:53:22.000Z</time>
      </trkpt>
      <trkpt lat="42.86571" lon="1.19694">
        <ele>557.9</ele>
        <time>2022-05-21T07:53:26.000Z</time>
      </trkpt>
      <trkpt lat="42.86572" lon="1.19707">
        <ele>557.7</ele>
        <time>2022-05-21T07:53:30.000Z</time>
      </trkpt>
      <trkpt lat="42.86571" lon="1.19721">
        <ele>557.5</ele>
        <time>2022-05-21T07:53:34.000Z</time>
      </trkpt>
      <trkpt lat="42.86571" lon="1.19736">
        <ele>557.4</ele>
        <time>2022-05-21T07:53:39.000Z</time>
      </trkpt>
      <trkpt lat="42.8657" lon="1.19748">
        <ele>557.5</ele>
        <time>2022-05-21T07:53:43.000Z</time>
      </trkpt>
      <trkpt lat="42.8657" lon="1.1976">
        <ele>556.9</ele>
        <time>2022-05-21T07:53:47.000Z</time>
      </trkpt>
      <trkpt lat="42.86534" lon="1.19949">
        <ele>533.9</ele>
        <time>2022-05-21T09:16:52.000Z</time>
      </trkpt>
      <trkpt lat="42.86533" lon="1.1995">
        <ele>525.1</ele>
        <time>2022-05-21T09:17:33.000Z</time>
      </trkpt>
      <trkpt lat="42.86526" lon="1.19961">
        <ele>523.3</ele>
        <time>2022-05-21T09:17:38.000Z</time>
      </trkpt>
      <trkpt lat="42.8652" lon="1.19977">
        <ele>522.7</ele>
        <time>2022-05-21T09:17:41.000Z</time>
      </trkpt>
      <trkpt lat="42.86513" lon="1.19989">
        <ele>522.5</ele>
        <time>2022-05-21T09:17:43.000Z</time>
      </trkpt>
      <trkpt lat="42.86506" lon="1.20003">
        <ele>521.8</ele>
        <time>2022-05-21T09:17:45.000Z</time>
      </trkpt>
      <trkpt lat="42.86497" lon="1.20018">
        <ele>521.8</ele>
        <time>2022-05-21T09:17:47.000Z</time>
      </trkpt>
      <trkpt lat="42.86489" lon="1.20034">
        <ele>521.9</ele>
        <time>2022-05-21T09:17:49.000Z</time>
      </trkpt>
      <trkpt lat="42.8648" lon="1.2005">
        <ele>522</ele>
        <time>2022-05-21T09:17:51.000Z</time>
      </trkpt>
      <trkpt lat="42.86471" lon="1.20063">
        <ele>522.1</ele>
        <time>2022-05-21T09:17:53.000Z</time>
      </trkpt>
      <trkpt lat="42.86464" lon="1.20075">
        <ele>522.1</ele>
        <time>2022-05-21T09:17:55.000Z</time>
      </trkpt>
      <trkpt lat="42.86458" lon="1.20084">
        <ele>522.3</ele>
        <time>2022-05-21T09:17:57.000Z</time>
      </trkpt>
      <trkpt lat="42.86449" lon="1.20095">
        <ele>523</ele>
        <time>2022-05-21T09:18:00.000Z</time>
      </trkpt>
      <trkpt lat="42.86442" lon="1.20105">
        <ele>523.5</ele>
        <time>2022-05-21T09:18:03.000Z</time>
      </trkpt>
      <trkpt lat="42.86434" lon="1.20116">
        <ele>523.9</ele>
        <time>2022-05-21T09:18:06.000Z</time>
      </trkpt>
      <trkpt lat="42.8643" lon="1.20129">
        <ele>524</ele>
        <time>2022-05-21T09:18:09.000Z</time>
      </trkpt>
      <trkpt lat="42.86433" lon="1.2014">
        <ele>525.6</ele>
        <time>2022-05-21T09:18:14.000Z</time>
      </trkpt>
      <trkpt lat="42.86442" lon="1.20146">
        <ele>525.7</ele>
        <time>2022-05-21T09:18:17.000Z</time>
      </trkpt>
      <trkpt lat="42.86453" lon="1.20151">
        <ele>526.7</ele>
        <time>2022-05-21T09:18:21.000Z</time>
      </trkpt>
      <trkpt lat="42.86462" lon="1.20159">
        <ele>527.5</ele>
        <time>2022-05-21T09:18:26.000Z</time>
      </trkpt>
      <trkpt lat="42.86471" lon="1.20164">
        <ele>528.2</ele>
        <time>2022-05-21T09:18:30.000Z</time>
      </trkpt>
      <trkpt lat="42.8648" lon="1.20171">
        <ele>529</ele>
        <time>2022-05-21T09:18:33.000Z</time>
      </trkpt>
      <trkpt lat="42.8649" lon="1.20178">
        <ele>529.4</ele>
        <time>2022-05-21T09:18:36.000Z</time>
      </trkpt>
      <trkpt lat="42.86502" lon="1.20183">
        <ele>530.1</ele>
        <time>2022-05-21T09:18:39.000Z</time>
      </trkpt>
      <trkpt lat="42.86512" lon="1.20191">
        <ele>530.6</ele>
        <time>2022-05-21T09:18:42.000Z</time>
      </trkpt>
      <trkpt lat="42.8652" lon="1.20197">
        <ele>531.1</ele>
        <time>2022-05-21T09:18:45.000Z</time>
      </trkpt>
      <trkpt lat="42.86528" lon="1.20203">
        <ele>531.6</ele>
        <time>2022-05-21T09:18:48.000Z</time>
      </trkpt>
      <trkpt lat="42.86539" lon="1.20209">
        <ele>532.1</ele>
        <time>2022-05-21T09:18:51.000Z</time>
      </trkpt>
      <trkpt lat="42.8655" lon="1.20216">
        <ele>533</ele>
        <time>2022-05-21T09:18:54.000Z</time>
      </trkpt>
      <trkpt lat="42.86562" lon="1.20223">
        <ele>533</ele>
        <time>2022-05-21T09:18:57.000Z</time>
      </trkpt>
      <trkpt lat="42.86574" lon="1.20229">
        <ele>533.2</ele>
        <time>2022-05-21T09:19:00.000Z</time>
      </trkpt>
      <trkpt lat="42.86583" lon="1.20234">
        <ele>533.6</ele>
        <time>2022-05-21T09:19:02.000Z</time>
      </trkpt>
      <trkpt lat="42.86592" lon="1.20237">
        <ele>533.4</ele>
        <time>2022-05-21T09:19:04.000Z</time>
      </trkpt>
      <trkpt lat="42.86602" lon="1.20241">
        <ele>533.4</ele>
        <time>2022-05-21T09:19:06.000Z</time>
      </trkpt>
      <trkpt lat="42.86612" lon="1.20246">
        <ele>533.7</ele>
        <time>2022-05-21T09:19:08.000Z</time>
      </trkpt>
      <trkpt lat="42.86622" lon="1.2025">
        <ele>533.8</ele>
        <time>2022-05-21T09:19:10.000Z</time>
      </trkpt>
      <trkpt lat="42.86632" lon="1.20256">
        <ele>533.8</ele>
        <time>2022-05-21T09:19:12.000Z</time>
      </trkpt>
      <trkpt lat="42.86642" lon="1.20262">
        <ele>533.3</ele>
        <time>2022-05-21T09:19:14.000Z</time>
      </trkpt>
      <trkpt lat="42.86653" lon="1.20268">
        <ele>533.1</ele>
        <time>2022-05-21T09:19:16.000Z</time>
      </trkpt>
      <trkpt lat="42.86663" lon="1.20274">
        <ele>533.2</ele>
        <time>2022-05-21T09:19:18.000Z</time>
      </trkpt>
      <trkpt lat="42.86674" lon="1.2028">
        <ele>532.6</ele>
        <time>2022-05-21T09:19:20.000Z</time>
      </trkpt>
      <trkpt lat="42.86684" lon="1.20286">
        <ele>532.5</ele>
        <time>2022-05-21T09:19:22.000Z</time>
      </trkpt>
      <trkpt lat="42.86694" lon="1.20292">
        <ele>532.1</ele>
        <time>2022-05-21T09:19:24.000Z</time>
      </trkpt>
      <trkpt lat="42.86705" lon="1.20298">
        <ele>532</ele>
        <time>2022-05-21T09:19:26.000Z</time>
      </trkpt>
      <trkpt lat="42.86716" lon="1.20303">
        <ele>531.9</ele>
        <time>2022-05-21T09:19:28.000Z</time>
      </trkpt>
      <trkpt lat="42.86726" lon="1.2031">
        <ele>531.2</ele>
        <time>2022-05-21T09:19:30.000Z</time>
      </trkpt>
      <trkpt lat="42.86736" lon="1.20316">
        <ele>531.1</ele>
        <time>2022-05-21T09:19:32.000Z</time>
      </trkpt>
      <trkpt lat="42.86745" lon="1.20321">
        <ele>530.7</ele>
        <time>2022-05-21T09:19:34.000Z</time>
      </trkpt>
      <trkpt lat="42.86755" lon="1.20326">
        <ele>530.5</ele>
        <time>2022-05-21T09:19:36.000Z</time>
      </trkpt>
      <trkpt lat="42.86763" lon="1.20331">
        <ele>529.9</ele>
        <time>2022-05-21T09:19:38.000Z</time>
      </trkpt>
      <trkpt lat="42.86773" lon="1.20336">
        <ele>529.7</ele>
        <time>2022-05-21T09:19:40.000Z</time>
      </trkpt>
      <trkpt lat="42.86783" lon="1.20341">
        <ele>529.2</ele>
        <time>2022-05-21T09:19:42.000Z</time>
      </trkpt>
      <trkpt lat="42.86792" lon="1.20347">
        <ele>528.8</ele>
        <time>2022-05-21T09:19:44.000Z</time>
      </trkpt>
      <trkpt lat="42.86802" lon="1.20352">
        <ele>528.7</ele>
        <time>2022-05-21T09:19:46.000Z</time>
      </trkpt>
      <trkpt lat="42.86811" lon="1.20357">
        <ele>528.2</ele>
        <time>2022-05-21T09:19:48.000Z</time>
      </trkpt>
      <trkpt lat="42.86821" lon="1.20362">
        <ele>527.9</ele>
        <time>2022-05-21T09:19:50.000Z</time>
      </trkpt>
      <trkpt lat="42.86831" lon="1.20368">
        <ele>528</ele>
        <time>2022-05-21T09:19:52.000Z</time>
      </trkpt>
      <trkpt lat="42.8684" lon="1.20374">
        <ele>527.1</ele>
        <time>2022-05-21T09:19:54.000Z</time>
      </trkpt>
      <trkpt lat="42.8685" lon="1.2038">
        <ele>526.8</ele>
        <time>2022-05-21T09:19:56.000Z</time>
      </trkpt>
      <trkpt lat="42.86859" lon="1.20386">
        <ele>526.8</ele>
        <time>2022-05-21T09:19:58.000Z</time>
      </trkpt>
      <trkpt lat="42.86869" lon="1.20392">
        <ele>526.2</ele>
        <time>2022-05-21T09:20:00.000Z</time>
      </trkpt>
      <trkpt lat="42.86879" lon="1.20398">
        <ele>526.5</ele>
        <time>2022-05-21T09:20:02.000Z</time>
      </trkpt>
      <trkpt lat="42.86889" lon="1.20404">
        <ele>526.6</ele>
        <time>2022-05-21T09:20:04.000Z</time>
      </trkpt>
      <trkpt lat="42.86899" lon="1.2041">
        <ele>526</ele>
        <time>2022-05-21T09:20:06.000Z</time>
      </trkpt>
      <trkpt lat="42.86909" lon="1.20415">
        <ele>526</ele>
        <time>2022-05-21T09:20:08.000Z</time>
      </trkpt>
      <trkpt lat="42.86918" lon="1.20421">
        <ele>525.8</ele>
        <time>2022-05-21T09:20:10.000Z</time>
      </trkpt>
      <trkpt lat="42.86928" lon="1.20426">
        <ele>525.5</ele>
        <time>2022-05-21T09:20:12.000Z</time>
      </trkpt>
      <trkpt lat="42.86937" lon="1.20431">
        <ele>525.3</ele>
        <time>2022-05-21T09:20:14.000Z</time>
      </trkpt>
      <trkpt lat="42.86946" lon="1.20436">
        <ele>524.9</ele>
        <time>2022-05-21T09:20:16.000Z</time>
      </trkpt>
      <trkpt lat="42.86954" lon="1.20441">
        <ele>524.8</ele>
        <time>2022-05-21T09:20:18.000Z</time>
      </trkpt>
      <trkpt lat="42.86966" lon="1.20447">
        <ele>524.7</ele>
        <time>2022-05-21T09:20:21.000Z</time>
      </trkpt>
      <trkpt lat="42.86968" lon="1.20447">
        <ele>507.7</ele>
      </trkpt>
      <trkpt lat="42.86975" lon="1.20456">
        <ele>507.3</ele>
      </trkpt>
      <trkpt lat="42.86977" lon="1.2046">
        <ele>507</ele>
      </trkpt>
      <trkpt lat="42.86977" lon="1.2046">
        <ele>507</ele>
      </trkpt>
      <trkpt lat="42.86979" lon="1.20467">
        <ele>506.5</ele>
      </trkpt>
      <trkpt lat="42.86979" lon="1.20473">
        <ele>505.9</ele>
      </trkpt>
      <trkpt lat="42.8698" lon="1.20479">
        <ele>505.5</ele>
      </trkpt>
    </trkseg>
  </trk>
</gpx>